<?xml version='1.0' encoding='UTF-8'?>
<gpx version="1.1" creator="https://www.komoot.de" xmlns="http://www.topografix.com/GPX/1/1" xmlns:xsi="http://www.w3.org/2001/XMLSchema-instance" xsi:schemaLocation="http://www.topografix.com/GPX/1/1 http://www.topografix.com/GPX/1/1/gpx.xsd">
  <metadata>
    <name>16.05.2025 Bielefeld Kompakte Kulinarische Schnitzeljagd</name>
    <author>
      <link href="https://www.komoot.de">
        <text>komoot</text>
        <type>text/html</type>
      </link>
    </author>
  </metadata>
  <wpt lat="52.019647" lon="8.528342">
    <name>Café Noa</name>
    <sym>Flag, Blue</sym>
  </wpt>
  <wpt lat="52.016708" lon="8.542772">
    <name>SuperBioMarkt</name>
    <sym>Flag, Blue</sym>
  </wpt>
  <wpt lat="52.022661" lon="8.533736">
    <name>Vomfass</name>
    <sym>Flag, Blue</sym>
  </wpt>
  <wpt lat="52.029471" lon="8.526855">
    <name>Rimini da Angelo</name>
    <sym>Flag, Blue</sym>
  </wpt>
  <wpt lat="52.056743" lon="8.551309">
    <name>Gasthaus Spökes</name>
    <sym>Flag, Blue</sym>
  </wpt>
  <wpt lat="52.059168" lon="8.558900">
    <name>Seekrug am Obersee</name>
    <sym>Flag, Blue</sym>
  </wpt>
  <wpt lat="52.059353" lon="8.463376">
    <name>↑ ↓ Brauerei Hopfenfreund Dorn</name>
    <sym>Flag, Blue</sym>
  </wpt>
  <wpt lat="52.051330" lon="8.459011">
    <name>Hofgemacht Bielefeld</name>
    <sym>Flag, Blue</sym>
  </wpt>
  <wpt lat="52.044882" lon="8.440257">
    <name>Restaurant Tomatissimo</name>
    <sym>Flag, Blue</sym>
  </wpt>
  <trk>
    <name>16.05.2025 Bielefeld Kompakte Kulinarische Schnitzeljagd</name>
    <trkseg>
      <trkpt lat="52.019647" lon="8.528342">
        <ele>120.205636</ele>
        <time>2026-04-21T11:59:47.969Z</time>
      </trkpt>
      <trkpt lat="52.019495" lon="8.527946">
        <ele>120.205636</ele>
        <time>2026-04-21T11:59:55.867Z</time>
      </trkpt>
      <trkpt lat="52.019604" lon="8.528015">
        <ele>120.205636</ele>
        <time>2026-04-21T11:59:59.093Z</time>
      </trkpt>
      <trkpt lat="52.019591" lon="8.527938">
        <ele>120.205636</ele>
        <time>2026-04-21T12:00:00.451Z</time>
      </trkpt>
      <trkpt lat="52.019546" lon="8.527874">
        <ele>120.205636</ele>
        <time>2026-04-21T12:00:01.775Z</time>
      </trkpt>
      <trkpt lat="52.019286" lon="8.527972">
        <ele>120.205636</ele>
        <time>2026-04-21T12:00:07.321Z</time>
      </trkpt>
      <trkpt lat="52.019096" lon="8.527910">
        <ele>120.144502</ele>
        <time>2026-04-21T12:00:11.347Z</time>
      </trkpt>
      <trkpt lat="52.019039" lon="8.528087">
        <ele>120.043626</ele>
        <time>2026-04-21T12:00:13.821Z</time>
      </trkpt>
      <trkpt lat="52.018994" lon="8.528221">
        <ele>119.966541</ele>
        <time>2026-04-21T12:00:15.742Z</time>
      </trkpt>
      <trkpt lat="52.018910" lon="8.528517">
        <ele>119.801945</ele>
        <time>2026-04-21T12:00:19.812Z</time>
      </trkpt>
      <trkpt lat="52.018903" lon="8.528700">
        <ele>119.709358</ele>
        <time>2026-04-21T12:00:22.108Z</time>
      </trkpt>
      <trkpt lat="52.018906" lon="8.528764">
        <ele>119.676947</ele>
        <time>2026-04-21T12:00:22.902Z</time>
      </trkpt>
      <trkpt lat="52.018945" lon="8.529256">
        <ele>119.426451</ele>
        <time>2026-04-21T12:00:29.062Z</time>
      </trkpt>
      <trkpt lat="52.018936" lon="8.529437">
        <ele>119.334755</ele>
        <time>2026-04-21T12:00:31.392Z</time>
      </trkpt>
      <trkpt lat="52.018924" lon="8.529578">
        <ele>119.262877</ele>
        <time>2026-04-21T12:00:33.222Z</time>
      </trkpt>
      <trkpt lat="52.018909" lon="8.529726">
        <ele>119.187135</ele>
        <time>2026-04-21T12:00:35.098Z</time>
      </trkpt>
      <trkpt lat="52.018840" lon="8.530351">
        <ele>118.866493</ele>
        <time>2026-04-21T12:00:43.148Z</time>
      </trkpt>
      <trkpt lat="52.018804" lon="8.531075">
        <ele>118.533219</ele>
        <time>2026-04-21T12:00:52.372Z</time>
      </trkpt>
      <trkpt lat="52.018775" lon="8.531354">
        <ele>118.411151</ele>
        <time>2026-04-21T12:00:55.937Z</time>
      </trkpt>
      <trkpt lat="52.018724" lon="8.531861">
        <ele>118.189524</ele>
        <time>2026-04-21T12:01:02.324Z</time>
      </trkpt>
      <trkpt lat="52.018677" lon="8.532193">
        <ele>118.042555</ele>
        <time>2026-04-21T12:01:06.778Z</time>
      </trkpt>
      <trkpt lat="52.018557" lon="8.532543">
        <ele>117.869710</ele>
        <time>2026-04-21T12:01:12.163Z</time>
      </trkpt>
      <trkpt lat="52.018353" lon="8.533152">
        <ele>117.570581</ele>
        <time>2026-04-21T12:01:20.992Z</time>
      </trkpt>
      <trkpt lat="52.018167" lon="8.533313">
        <ele>117.457031</ele>
        <time>2026-04-21T12:01:26.548Z</time>
      </trkpt>
      <trkpt lat="52.018118" lon="8.533420">
        <ele>117.442216</ele>
        <time>2026-04-21T12:01:28.666Z</time>
      </trkpt>
      <trkpt lat="52.018044" lon="8.533470">
        <ele>117.427751</ele>
        <time>2026-04-21T12:01:30.243Z</time>
      </trkpt>
      <trkpt lat="52.018037" lon="8.533536">
        <ele>117.420312</ele>
        <time>2026-04-21T12:01:31.035Z</time>
      </trkpt>
      <trkpt lat="52.018019" lon="8.533668">
        <ele>117.405294</ele>
        <time>2026-04-21T12:01:32.706Z</time>
      </trkpt>
      <trkpt lat="52.017999" lon="8.533823">
        <ele>117.387703</ele>
        <time>2026-04-21T12:01:34.627Z</time>
      </trkpt>
      <trkpt lat="52.017981" lon="8.533940">
        <ele>117.374307</ele>
        <time>2026-04-21T12:01:36.144Z</time>
      </trkpt>
      <trkpt lat="52.017773" lon="8.533794">
        <ele>117.333412</ele>
        <time>2026-04-21T12:01:42.327Z</time>
      </trkpt>
      <trkpt lat="52.017611" lon="8.534370">
        <ele>117.263067</ele>
        <time>2026-04-21T12:01:53.206Z</time>
      </trkpt>
      <trkpt lat="52.017588" lon="8.534460">
        <ele>117.252243</ele>
        <time>2026-04-21T12:01:54.888Z</time>
      </trkpt>
      <trkpt lat="52.017352" lon="8.535375">
        <ele>117.138877</ele>
        <time>2026-04-21T12:02:11.446Z</time>
      </trkpt>
      <trkpt lat="52.017308" lon="8.535559">
        <ele>117.085483</ele>
        <time>2026-04-21T12:02:14.779Z</time>
      </trkpt>
      <trkpt lat="52.017293" lon="8.535656">
        <ele>117.058431</ele>
        <time>2026-04-21T12:02:16.480Z</time>
      </trkpt>
      <trkpt lat="52.017297" lon="8.535941">
        <ele>116.981322</ele>
        <time>2026-04-21T12:02:21.307Z</time>
      </trkpt>
      <trkpt lat="52.017297" lon="8.535968">
        <ele>116.974019</ele>
        <time>2026-04-21T12:02:21.762Z</time>
      </trkpt>
      <trkpt lat="52.017298" lon="8.535996">
        <ele>116.966433</ele>
        <time>2026-04-21T12:02:22.239Z</time>
      </trkpt>
      <trkpt lat="52.017302" lon="8.536271">
        <ele>116.892029</ele>
        <time>2026-04-21T12:02:26.922Z</time>
      </trkpt>
      <trkpt lat="52.017301" lon="8.536721">
        <ele>116.770310</ele>
        <time>2026-04-21T12:02:34.490Z</time>
      </trkpt>
      <trkpt lat="52.017322" lon="8.537658">
        <ele>116.516698</ele>
        <time>2026-04-21T12:02:49.993Z</time>
      </trkpt>
      <trkpt lat="52.017339" lon="8.538365">
        <ele>116.265857</ele>
        <time>2026-04-21T12:03:01.600Z</time>
      </trkpt>
      <trkpt lat="52.017372" lon="8.538452">
        <ele>116.180349</ele>
        <time>2026-04-21T12:03:03.310Z</time>
      </trkpt>
      <trkpt lat="52.017387" lon="8.539062">
        <ele>115.669557</ele>
        <time>2026-04-21T12:03:13.174Z</time>
      </trkpt>
      <trkpt lat="52.017402" lon="8.539676">
        <ele>115.155421</ele>
        <time>2026-04-21T12:03:22.685Z</time>
      </trkpt>
      <trkpt lat="52.017403" lon="8.539726">
        <ele>115.113565</ele>
        <time>2026-04-21T12:03:23.439Z</time>
      </trkpt>
      <trkpt lat="52.017406" lon="8.539811">
        <ele>115.042329</ele>
        <time>2026-04-21T12:03:24.717Z</time>
      </trkpt>
      <trkpt lat="52.017407" lon="8.539860">
        <ele>115.001308</ele>
        <time>2026-04-21T12:03:25.472Z</time>
      </trkpt>
      <trkpt lat="52.017412" lon="8.540096">
        <ele>114.803731</ele>
        <time>2026-04-21T12:03:29.053Z</time>
      </trkpt>
      <trkpt lat="52.017425" lon="8.540579">
        <ele>114.399221</ele>
        <time>2026-04-21T12:03:36.415Z</time>
      </trkpt>
      <trkpt lat="52.017429" lon="8.540800">
        <ele>114.214231</ele>
        <time>2026-04-21T12:03:39.761Z</time>
      </trkpt>
      <trkpt lat="52.017384" lon="8.540881">
        <ele>114.122930</ele>
        <time>2026-04-21T12:03:41.423Z</time>
      </trkpt>
      <trkpt lat="52.017395" lon="8.541409">
        <ele>113.764147</ele>
        <time>2026-04-21T12:03:49.417Z</time>
      </trkpt>
      <trkpt lat="52.017400" lon="8.541647">
        <ele>113.637812</ele>
        <time>2026-04-21T12:03:53.019Z</time>
      </trkpt>
      <trkpt lat="52.017447" lon="8.541732">
        <ele>113.577191</ele>
        <time>2026-04-21T12:03:54.753Z</time>
      </trkpt>
      <trkpt lat="52.017457" lon="8.542093">
        <ele>113.385482</ele>
        <time>2026-04-21T12:04:00.321Z</time>
      </trkpt>
      <trkpt lat="52.017460" lon="8.542241">
        <ele>113.306924</ele>
        <time>2026-04-21T12:04:02.631Z</time>
      </trkpt>
      <trkpt lat="52.017463" lon="8.542370">
        <ele>113.238439</ele>
        <time>2026-04-21T12:04:04.659Z</time>
      </trkpt>
      <trkpt lat="52.017486" lon="8.542815">
        <ele>113.001530</ele>
        <time>2026-04-21T12:04:11.966Z</time>
      </trkpt>
      <trkpt lat="52.017398" lon="8.542769">
        <ele>112.921843</ele>
        <time>2026-04-21T12:04:13.814Z</time>
      </trkpt>
      <trkpt lat="52.017074" lon="8.542739">
        <ele>112.642092</ele>
        <time>2026-04-21T12:04:20.454Z</time>
      </trkpt>
      <trkpt lat="52.016994" lon="8.542786">
        <ele>112.568760</ele>
        <time>2026-04-21T12:04:22.206Z</time>
      </trkpt>
      <trkpt lat="52.016964" lon="8.542783">
        <ele>112.542850</ele>
        <time>2026-04-21T12:04:22.873Z</time>
      </trkpt>
      <trkpt lat="52.016708" lon="8.542772">
        <ele>112.390478</ele>
        <time>2026-04-21T12:04:28.460Z</time>
      </trkpt>
      <trkpt lat="52.016964" lon="8.542783">
        <ele>112.591331</ele>
        <time>2026-04-21T12:04:34.098Z</time>
      </trkpt>
      <trkpt lat="52.016994" lon="8.542786">
        <ele>112.614905</ele>
        <time>2026-04-21T12:04:34.744Z</time>
      </trkpt>
      <trkpt lat="52.017070" lon="8.542840">
        <ele>112.679962</ele>
        <time>2026-04-21T12:04:36.537Z</time>
      </trkpt>
      <trkpt lat="52.017396" lon="8.542864">
        <ele>112.935908</ele>
        <time>2026-04-21T12:04:43.597Z</time>
      </trkpt>
      <trkpt lat="52.017486" lon="8.542815">
        <ele>113.010353</ele>
        <time>2026-04-21T12:04:45.662Z</time>
      </trkpt>
      <trkpt lat="52.017463" lon="8.542370">
        <ele>113.225901</ele>
        <time>2026-04-21T12:04:53.345Z</time>
      </trkpt>
      <trkpt lat="52.017460" lon="8.542241">
        <ele>113.288211</ele>
        <time>2026-04-21T12:04:55.568Z</time>
      </trkpt>
      <trkpt lat="52.017457" lon="8.542093">
        <ele>113.359686</ele>
        <time>2026-04-21T12:04:58.123Z</time>
      </trkpt>
      <trkpt lat="52.017447" lon="8.541732">
        <ele>113.534110</ele>
        <time>2026-04-21T12:05:04.364Z</time>
      </trkpt>
      <trkpt lat="52.017400" lon="8.541647">
        <ele>113.589265</ele>
        <time>2026-04-21T12:05:06.348Z</time>
      </trkpt>
      <trkpt lat="52.017395" lon="8.541409">
        <ele>113.704210</ele>
        <time>2026-04-21T12:05:10.468Z</time>
      </trkpt>
      <trkpt lat="52.017384" lon="8.540881">
        <ele>114.107572</ele>
        <time>2026-04-21T12:05:19.621Z</time>
      </trkpt>
      <trkpt lat="52.017429" lon="8.540800">
        <ele>114.201237</ele>
        <time>2026-04-21T12:05:21.503Z</time>
      </trkpt>
      <trkpt lat="52.017425" lon="8.540579">
        <ele>114.391013</ele>
        <time>2026-04-21T12:05:25.335Z</time>
      </trkpt>
      <trkpt lat="52.017412" lon="8.540096">
        <ele>114.805991</ele>
        <time>2026-04-21T12:05:33.696Z</time>
      </trkpt>
      <trkpt lat="52.017407" lon="8.539860">
        <ele>115.008681</ele>
        <time>2026-04-21T12:05:37.789Z</time>
      </trkpt>
      <trkpt lat="52.017406" lon="8.539811">
        <ele>115.050763</ele>
        <time>2026-04-21T12:05:38.632Z</time>
      </trkpt>
      <trkpt lat="52.017403" lon="8.539726">
        <ele>115.123843</ele>
        <time>2026-04-21T12:05:40.119Z</time>
      </trkpt>
      <trkpt lat="52.017402" lon="8.539676">
        <ele>115.166783</ele>
        <time>2026-04-21T12:05:40.976Z</time>
      </trkpt>
      <trkpt lat="52.017387" lon="8.539062">
        <ele>115.694224</ele>
        <time>2026-04-21T12:05:51.605Z</time>
      </trkpt>
      <trkpt lat="52.017372" lon="8.538452">
        <ele>116.218234</ele>
        <time>2026-04-21T12:06:02.112Z</time>
      </trkpt>
      <trkpt lat="52.017339" lon="8.538365">
        <ele>116.287742</ele>
        <time>2026-04-21T12:06:03.874Z</time>
      </trkpt>
      <trkpt lat="52.017322" lon="8.537658">
        <ele>116.510274</ele>
        <time>2026-04-21T12:06:16.035Z</time>
      </trkpt>
      <trkpt lat="52.017301" lon="8.536721">
        <ele>116.805170</ele>
        <time>2026-04-21T12:06:32.154Z</time>
      </trkpt>
      <trkpt lat="52.017302" lon="8.536271">
        <ele>116.946703</ele>
        <time>2026-04-21T12:06:39.819Z</time>
      </trkpt>
      <trkpt lat="52.017298" lon="8.535996">
        <ele>117.033219</ele>
        <time>2026-04-21T12:06:44.478Z</time>
      </trkpt>
      <trkpt lat="52.017297" lon="8.535968">
        <ele>117.042040</ele>
        <time>2026-04-21T12:06:44.950Z</time>
      </trkpt>
      <trkpt lat="52.017297" lon="8.535941">
        <ele>117.050532</ele>
        <time>2026-04-21T12:06:45.407Z</time>
      </trkpt>
      <trkpt lat="52.017293" lon="8.535656">
        <ele>117.140192</ele>
        <time>2026-04-21T12:06:50.212Z</time>
      </trkpt>
      <trkpt lat="52.017308" lon="8.535559">
        <ele>117.171649</ele>
        <time>2026-04-21T12:06:51.919Z</time>
      </trkpt>
      <trkpt lat="52.017352" lon="8.535375">
        <ele>117.205630</ele>
        <time>2026-04-21T12:06:55.281Z</time>
      </trkpt>
      <trkpt lat="52.017588" lon="8.534460">
        <ele>117.282671</ele>
        <time>2026-04-21T12:07:12.316Z</time>
      </trkpt>
      <trkpt lat="52.017611" lon="8.534370">
        <ele>117.290239</ele>
        <time>2026-04-21T12:07:13.989Z</time>
      </trkpt>
      <trkpt lat="52.017773" lon="8.533794">
        <ele>117.339417</ele>
        <time>2026-04-21T12:07:24.675Z</time>
      </trkpt>
      <trkpt lat="52.017799" lon="8.533701">
        <ele>117.347349</ele>
        <time>2026-04-21T12:07:25.992Z</time>
      </trkpt>
      <trkpt lat="52.017999" lon="8.533823">
        <ele>117.374305</ele>
        <time>2026-04-21T12:07:30.622Z</time>
      </trkpt>
      <trkpt lat="52.018141" lon="8.533885">
        <ele>117.392858</ele>
        <time>2026-04-21T12:07:33.847Z</time>
      </trkpt>
      <trkpt lat="52.018295" lon="8.533926">
        <ele>117.412549</ele>
        <time>2026-04-21T12:07:37.191Z</time>
      </trkpt>
      <trkpt lat="52.018729" lon="8.534009">
        <ele>117.298007</ele>
        <time>2026-04-21T12:07:46.598Z</time>
      </trkpt>
      <trkpt lat="52.018926" lon="8.534066">
        <ele>117.226589</ele>
        <time>2026-04-21T12:07:50.755Z</time>
      </trkpt>
      <trkpt lat="52.019757" lon="8.534497">
        <ele>116.915252</ele>
        <time>2026-04-21T12:08:08.069Z</time>
      </trkpt>
      <trkpt lat="52.020096" lon="8.534629">
        <ele>116.790834</ele>
        <time>2026-04-21T12:08:15.313Z</time>
      </trkpt>
      <trkpt lat="52.020519" lon="8.534703">
        <ele>116.737769</ele>
        <time>2026-04-21T12:08:23.890Z</time>
      </trkpt>
      <trkpt lat="52.020963" lon="8.534713">
        <ele>116.689207</ele>
        <time>2026-04-21T12:08:32.934Z</time>
      </trkpt>
      <trkpt lat="52.021348" lon="8.534660">
        <ele>116.646951</ele>
        <time>2026-04-21T12:08:41.201Z</time>
      </trkpt>
      <trkpt lat="52.021534" lon="8.534581">
        <ele>116.625926</ele>
        <time>2026-04-21T12:08:45.390Z</time>
      </trkpt>
      <trkpt lat="52.021746" lon="8.534439">
        <ele>116.600849</ele>
        <time>2026-04-21T12:08:50.327Z</time>
      </trkpt>
      <trkpt lat="52.022156" lon="8.534104">
        <ele>116.514359</ele>
        <time>2026-04-21T12:08:59.961Z</time>
      </trkpt>
      <trkpt lat="52.022330" lon="8.533957">
        <ele>116.470042</ele>
        <time>2026-04-21T12:09:04.179Z</time>
      </trkpt>
      <trkpt lat="52.022437" lon="8.533884">
        <ele>116.443817</ele>
        <time>2026-04-21T12:09:06.593Z</time>
      </trkpt>
      <trkpt lat="52.022453" lon="8.533930">
        <ele>116.436469</ele>
        <time>2026-04-21T12:09:08.838Z</time>
      </trkpt>
      <trkpt lat="52.022661" lon="8.533736">
        <ele>116.382272</ele>
        <time>2026-04-21T12:09:25.497Z</time>
      </trkpt>
      <trkpt lat="52.022453" lon="8.533930">
        <ele>116.328075</ele>
        <time>2026-04-21T12:09:42.156Z</time>
      </trkpt>
      <trkpt lat="52.022437" lon="8.533884">
        <ele>116.320727</ele>
        <time>2026-04-21T12:09:44.400Z</time>
      </trkpt>
      <trkpt lat="52.022728" lon="8.533594">
        <ele>116.243585</ele>
        <time>2026-04-21T12:09:50.953Z</time>
      </trkpt>
      <trkpt lat="52.022798" lon="8.533433">
        <ele>116.216171</ele>
        <time>2026-04-21T12:09:53.424Z</time>
      </trkpt>
      <trkpt lat="52.022980" lon="8.533252">
        <ele>116.207433</ele>
        <time>2026-04-21T12:09:57.982Z</time>
      </trkpt>
      <trkpt lat="52.023085" lon="8.533160">
        <ele>116.283978</ele>
        <time>2026-04-21T12:10:00.533Z</time>
      </trkpt>
      <trkpt lat="52.023111" lon="8.533239">
        <ele>116.319352</ele>
        <time>2026-04-21T12:10:02.398Z</time>
      </trkpt>
      <trkpt lat="52.023183" lon="8.533171">
        <ele>116.372788</ele>
        <time>2026-04-21T12:10:04.144Z</time>
      </trkpt>
      <trkpt lat="52.023214" lon="8.533142">
        <ele>116.395741</ele>
        <time>2026-04-21T12:10:04.935Z</time>
      </trkpt>
      <trkpt lat="52.023286" lon="8.533075">
        <ele>116.448979</ele>
        <time>2026-04-21T12:10:06.738Z</time>
      </trkpt>
      <trkpt lat="52.023262" lon="8.532945">
        <ele>116.502570</ele>
        <time>2026-04-21T12:10:09.616Z</time>
      </trkpt>
      <trkpt lat="52.023247" lon="8.532747">
        <ele>116.581341</ele>
        <time>2026-04-21T12:10:13.847Z</time>
      </trkpt>
      <trkpt lat="52.023264" lon="8.532519">
        <ele>116.672025</ele>
        <time>2026-04-21T12:10:18.713Z</time>
      </trkpt>
      <trkpt lat="52.023325" lon="8.532187">
        <ele>116.808834</ele>
        <time>2026-04-21T12:10:26.033Z</time>
      </trkpt>
      <trkpt lat="52.023371" lon="8.531866">
        <ele>116.938972</ele>
        <time>2026-04-21T12:10:32.977Z</time>
      </trkpt>
      <trkpt lat="52.023394" lon="8.531701">
        <ele>117.005773</ele>
        <time>2026-04-21T12:10:36.505Z</time>
      </trkpt>
      <trkpt lat="52.023456" lon="8.531211">
        <ele>117.203297</ele>
        <time>2026-04-21T12:10:46.879Z</time>
      </trkpt>
      <trkpt lat="52.023458" lon="8.530868">
        <ele>117.339819</ele>
        <time>2026-04-21T12:10:53.995Z</time>
      </trkpt>
      <trkpt lat="52.023446" lon="8.530664">
        <ele>117.434526</ele>
        <time>2026-04-21T12:10:58.246Z</time>
      </trkpt>
      <trkpt lat="52.023647" lon="8.530613">
        <ele>117.587314</ele>
        <time>2026-04-21T12:11:03.952Z</time>
      </trkpt>
      <trkpt lat="52.023676" lon="8.530605">
        <ele>117.609406</ele>
        <time>2026-04-21T12:11:04.595Z</time>
      </trkpt>
      <trkpt lat="52.023753" lon="8.530585">
        <ele>117.667970</ele>
        <time>2026-04-21T12:11:06.340Z</time>
      </trkpt>
      <trkpt lat="52.024029" lon="8.530513">
        <ele>117.877911</ele>
        <time>2026-04-21T12:11:12.537Z</time>
      </trkpt>
      <trkpt lat="52.024234" lon="8.530461">
        <ele>118.033739</ele>
        <time>2026-04-21T12:11:17.171Z</time>
      </trkpt>
      <trkpt lat="52.024361" lon="8.530429">
        <ele>118.130261</ele>
        <time>2026-04-21T12:11:20.043Z</time>
      </trkpt>
      <trkpt lat="52.024707" lon="8.530353">
        <ele>118.392484</ele>
        <time>2026-04-21T12:11:27.830Z</time>
      </trkpt>
      <trkpt lat="52.024964" lon="8.530257">
        <ele>118.590534</ele>
        <time>2026-04-21T12:11:33.647Z</time>
      </trkpt>
      <trkpt lat="52.025288" lon="8.530065">
        <ele>118.514800</ele>
        <time>2026-04-21T12:11:40.981Z</time>
      </trkpt>
      <trkpt lat="52.025540" lon="8.529918">
        <ele>118.311142</ele>
        <time>2026-04-21T12:11:46.536Z</time>
      </trkpt>
      <trkpt lat="52.026031" lon="8.529632">
        <ele>117.914399</ele>
        <time>2026-04-21T12:11:56.784Z</time>
      </trkpt>
      <trkpt lat="52.026090" lon="8.529601">
        <ele>117.867233</ele>
        <time>2026-04-21T12:11:57.919Z</time>
      </trkpt>
      <trkpt lat="52.026143" lon="8.529611">
        <ele>117.826648</ele>
        <time>2026-04-21T12:11:58.936Z</time>
      </trkpt>
      <trkpt lat="52.026360" lon="8.529836">
        <ele>117.630855</ele>
        <time>2026-04-21T12:12:03.734Z</time>
      </trkpt>
      <trkpt lat="52.026442" lon="8.529919">
        <ele>117.557374</ele>
        <time>2026-04-21T12:12:05.516Z</time>
      </trkpt>
      <trkpt lat="52.026739" lon="8.530220">
        <ele>117.326558</ele>
        <time>2026-04-21T12:12:11.876Z</time>
      </trkpt>
      <trkpt lat="52.027311" lon="8.530781">
        <ele>117.569685</ele>
        <time>2026-04-21T12:12:24.676Z</time>
      </trkpt>
      <trkpt lat="52.027330" lon="8.530638">
        <ele>117.602442</ele>
        <time>2026-04-21T12:12:27.100Z</time>
      </trkpt>
      <trkpt lat="52.027515" lon="8.530247">
        <ele>117.712885</ele>
        <time>2026-04-21T12:12:35.557Z</time>
      </trkpt>
      <trkpt lat="52.027585" lon="8.530110">
        <ele>117.752760</ele>
        <time>2026-04-21T12:12:38.664Z</time>
      </trkpt>
      <trkpt lat="52.027678" lon="8.529861">
        <ele>117.817982</ele>
        <time>2026-04-21T12:12:43.691Z</time>
      </trkpt>
      <trkpt lat="52.027726" lon="8.529745">
        <ele>117.849283</ele>
        <time>2026-04-21T12:12:45.671Z</time>
      </trkpt>
      <trkpt lat="52.027794" lon="8.529594">
        <ele>117.891183</ele>
        <time>2026-04-21T12:12:48.314Z</time>
      </trkpt>
      <trkpt lat="52.027814" lon="8.529555">
        <ele>117.902551</ele>
        <time>2026-04-21T12:12:49.056Z</time>
      </trkpt>
      <trkpt lat="52.027875" lon="8.529436">
        <ele>117.937232</ele>
        <time>2026-04-21T12:12:51.721Z</time>
      </trkpt>
      <trkpt lat="52.027887" lon="8.529291">
        <ele>117.972189</ele>
        <time>2026-04-21T12:12:54.254Z</time>
      </trkpt>
      <trkpt lat="52.027892" lon="8.529244">
        <ele>118.052571</ele>
        <time>2026-04-21T12:12:55.087Z</time>
      </trkpt>
      <trkpt lat="52.027900" lon="8.529177">
        <ele>118.167590</ele>
        <time>2026-04-21T12:12:56.264Z</time>
      </trkpt>
      <trkpt lat="52.027908" lon="8.529109">
        <ele>118.284264</ele>
        <time>2026-04-21T12:12:57.470Z</time>
      </trkpt>
      <trkpt lat="52.027934" lon="8.528925">
        <ele>118.602424</ele>
        <time>2026-04-21T12:13:00.753Z</time>
      </trkpt>
      <trkpt lat="52.027952" lon="8.528816">
        <ele>118.792619</ele>
        <time>2026-04-21T12:13:02.734Z</time>
      </trkpt>
      <trkpt lat="52.027949" lon="8.528650">
        <ele>119.072492</ele>
        <time>2026-04-21T12:13:05.637Z</time>
      </trkpt>
      <trkpt lat="52.027977" lon="8.528461">
        <ele>119.400109</ele>
        <time>2026-04-21T12:13:09.062Z</time>
      </trkpt>
      <trkpt lat="52.028035" lon="8.528172">
        <ele>119.912402</ele>
        <time>2026-04-21T12:13:14.477Z</time>
      </trkpt>
      <trkpt lat="52.028030" lon="8.528103">
        <ele>120.029489</ele>
        <time>2026-04-21T12:13:15.732Z</time>
      </trkpt>
      <trkpt lat="52.028007" lon="8.528009">
        <ele>120.199970</ele>
        <time>2026-04-21T12:13:17.542Z</time>
      </trkpt>
      <trkpt lat="52.028022" lon="8.527895">
        <ele>120.396433</ele>
        <time>2026-04-21T12:13:19.641Z</time>
      </trkpt>
      <trkpt lat="52.028166" lon="8.527795">
        <ele>120.825347</ele>
        <time>2026-04-21T12:13:24.207Z</time>
      </trkpt>
      <trkpt lat="52.028366" lon="8.527612">
        <ele>121.453997</ele>
        <time>2026-04-21T12:13:30.879Z</time>
      </trkpt>
      <trkpt lat="52.028721" lon="8.527060">
        <ele>122.799670</ele>
        <time>2026-04-21T12:13:44.874Z</time>
      </trkpt>
      <trkpt lat="52.029022" lon="8.526593">
        <ele>123.135972</ele>
        <time>2026-04-21T12:13:54.687Z</time>
      </trkpt>
      <trkpt lat="52.029276" lon="8.526167">
        <ele>123.365749</ele>
        <time>2026-04-21T12:14:03.094Z</time>
      </trkpt>
      <trkpt lat="52.029471" lon="8.526855">
        <ele>123.659156</ele>
        <time>2026-04-21T12:14:13.400Z</time>
      </trkpt>
      <trkpt lat="52.029276" lon="8.526167">
        <ele>123.952563</ele>
        <time>2026-04-21T12:14:22.679Z</time>
      </trkpt>
      <trkpt lat="52.029022" lon="8.526593">
        <ele>123.415992</ele>
        <time>2026-04-21T12:14:29.322Z</time>
      </trkpt>
      <trkpt lat="52.028721" lon="8.527060">
        <ele>122.372715</ele>
        <time>2026-04-21T12:14:36.514Z</time>
      </trkpt>
      <trkpt lat="52.028366" lon="8.527612">
        <ele>121.140968</ele>
        <time>2026-04-21T12:14:47.855Z</time>
      </trkpt>
      <trkpt lat="52.028166" lon="8.527795">
        <ele>120.565540</ele>
        <time>2026-04-21T12:14:52.902Z</time>
      </trkpt>
      <trkpt lat="52.028022" lon="8.527895">
        <ele>120.172939</ele>
        <time>2026-04-21T12:14:56.354Z</time>
      </trkpt>
      <trkpt lat="52.028007" lon="8.528009">
        <ele>119.993108</ele>
        <time>2026-04-21T12:14:57.924Z</time>
      </trkpt>
      <trkpt lat="52.028030" lon="8.528103">
        <ele>119.837061</ele>
        <time>2026-04-21T12:14:59.297Z</time>
      </trkpt>
      <trkpt lat="52.028035" lon="8.528172">
        <ele>119.729887</ele>
        <time>2026-04-21T12:15:00.232Z</time>
      </trkpt>
      <trkpt lat="52.027977" lon="8.528461">
        <ele>119.369507</ele>
        <time>2026-04-21T12:15:04.364Z</time>
      </trkpt>
      <trkpt lat="52.027949" lon="8.528650">
        <ele>119.195728</ele>
        <time>2026-04-21T12:15:07.061Z</time>
      </trkpt>
      <trkpt lat="52.027952" lon="8.528816">
        <ele>119.047273</ele>
        <time>2026-04-21T12:15:09.390Z</time>
      </trkpt>
      <trkpt lat="52.027934" lon="8.528925">
        <ele>118.946388</ele>
        <time>2026-04-21T12:15:10.980Z</time>
      </trkpt>
      <trkpt lat="52.027908" lon="8.529109">
        <ele>118.777624</ele>
        <time>2026-04-21T12:15:13.701Z</time>
      </trkpt>
      <trkpt lat="52.027900" lon="8.529177">
        <ele>118.715737</ele>
        <time>2026-04-21T12:15:14.708Z</time>
      </trkpt>
      <trkpt lat="52.027892" lon="8.529244">
        <ele>118.654726</ele>
        <time>2026-04-21T12:15:15.711Z</time>
      </trkpt>
      <trkpt lat="52.027887" lon="8.529291">
        <ele>118.612089</ele>
        <time>2026-04-21T12:15:16.430Z</time>
      </trkpt>
      <trkpt lat="52.027875" lon="8.529436">
        <ele>118.481303</ele>
        <time>2026-04-21T12:15:18.586Z</time>
      </trkpt>
      <trkpt lat="52.027814" lon="8.529555">
        <ele>118.342846</ele>
        <time>2026-04-21T12:15:20.913Z</time>
      </trkpt>
      <trkpt lat="52.027794" lon="8.529594">
        <ele>118.297461</ele>
        <time>2026-04-21T12:15:21.503Z</time>
      </trkpt>
      <trkpt lat="52.027726" lon="8.529745">
        <ele>118.130186</ele>
        <time>2026-04-21T12:15:23.696Z</time>
      </trkpt>
      <trkpt lat="52.027678" lon="8.529861">
        <ele>118.005222</ele>
        <time>2026-04-21T12:15:25.348Z</time>
      </trkpt>
      <trkpt lat="52.027747" lon="8.529952">
        <ele>117.876121</ele>
        <time>2026-04-21T12:15:27.084Z</time>
      </trkpt>
      <trkpt lat="52.027825" lon="8.530050">
        <ele>117.732884</ele>
        <time>2026-04-21T12:15:29.011Z</time>
      </trkpt>
      <trkpt lat="52.027867" lon="8.530100">
        <ele>117.657245</ele>
        <time>2026-04-21T12:15:30.016Z</time>
      </trkpt>
      <trkpt lat="52.027951" lon="8.530195">
        <ele>117.508564</ele>
        <time>2026-04-21T12:15:32.716Z</time>
      </trkpt>
      <trkpt lat="52.027992" lon="8.530242">
        <ele>117.435670</ele>
        <time>2026-04-21T12:15:34.046Z</time>
      </trkpt>
      <trkpt lat="52.028560" lon="8.531018">
        <ele>117.118443</ele>
        <time>2026-04-21T12:15:54.683Z</time>
      </trkpt>
      <trkpt lat="52.028725" lon="8.531229">
        <ele>117.236698</ele>
        <time>2026-04-21T12:16:00.555Z</time>
      </trkpt>
      <trkpt lat="52.029005" lon="8.531461">
        <ele>117.413721</ele>
        <time>2026-04-21T12:16:09.366Z</time>
      </trkpt>
      <trkpt lat="52.029195" lon="8.531684">
        <ele>117.545726</ele>
        <time>2026-04-21T12:16:15.913Z</time>
      </trkpt>
      <trkpt lat="52.029215" lon="8.531769">
        <ele>117.577263</ele>
        <time>2026-04-21T12:16:17.493Z</time>
      </trkpt>
      <trkpt lat="52.029495" lon="8.532145">
        <ele>117.781840</ele>
        <time>2026-04-21T12:16:27.606Z</time>
      </trkpt>
      <trkpt lat="52.029650" lon="8.532348">
        <ele>117.893961</ele>
        <time>2026-04-21T12:16:33.142Z</time>
      </trkpt>
      <trkpt lat="52.029760" lon="8.532494">
        <ele>117.886289</ele>
        <time>2026-04-21T12:16:37.109Z</time>
      </trkpt>
      <trkpt lat="52.030021" lon="8.532837">
        <ele>117.773841</ele>
        <time>2026-04-21T12:16:46.439Z</time>
      </trkpt>
      <trkpt lat="52.030264" lon="8.533155">
        <ele>117.669322</ele>
        <time>2026-04-21T12:16:54.991Z</time>
      </trkpt>
      <trkpt lat="52.030585" lon="8.533575">
        <ele>117.531263</ele>
        <time>2026-04-21T12:17:06.222Z</time>
      </trkpt>
      <trkpt lat="52.031080" lon="8.534228">
        <ele>117.317679</ele>
        <time>2026-04-21T12:17:19.206Z</time>
      </trkpt>
      <trkpt lat="52.031209" lon="8.534464">
        <ele>117.010521</ele>
        <time>2026-04-21T12:17:23.109Z</time>
      </trkpt>
      <trkpt lat="52.031302" lon="8.534738">
        <ele>116.701211</ele>
        <time>2026-04-21T12:17:28.041Z</time>
      </trkpt>
      <trkpt lat="52.031425" lon="8.534805">
        <ele>116.492797</ele>
        <time>2026-04-21T12:17:31.280Z</time>
      </trkpt>
      <trkpt lat="52.031553" lon="8.535022">
        <ele>116.195653</ele>
        <time>2026-04-21T12:17:35.845Z</time>
      </trkpt>
      <trkpt lat="52.031630" lon="8.535084">
        <ele>116.057598</ele>
        <time>2026-04-21T12:17:37.975Z</time>
      </trkpt>
      <trkpt lat="52.031947" lon="8.535744">
        <ele>115.229983</ele>
        <time>2026-04-21T12:17:47.314Z</time>
      </trkpt>
      <trkpt lat="52.032028" lon="8.535915">
        <ele>115.016670</ele>
        <time>2026-04-21T12:17:49.715Z</time>
      </trkpt>
      <trkpt lat="52.032248" lon="8.536319">
        <ele>114.483395</ele>
        <time>2026-04-21T12:17:55.719Z</time>
      </trkpt>
      <trkpt lat="52.032753" lon="8.537205">
        <ele>112.274017</ele>
        <time>2026-04-21T12:18:08.325Z</time>
      </trkpt>
      <trkpt lat="52.032892" lon="8.537489">
        <ele>111.594951</ele>
        <time>2026-04-21T12:18:11.927Z</time>
      </trkpt>
      <trkpt lat="52.033114" lon="8.537949">
        <ele>110.500980</ele>
        <time>2026-04-21T12:18:17.866Z</time>
      </trkpt>
      <trkpt lat="52.033208" lon="8.538088">
        <ele>110.114475</ele>
        <time>2026-04-21T12:18:19.910Z</time>
      </trkpt>
      <trkpt lat="52.033305" lon="8.538151">
        <ele>109.796770</ele>
        <time>2026-04-21T12:18:21.555Z</time>
      </trkpt>
      <trkpt lat="52.033472" lon="8.538138">
        <ele>109.288256</ele>
        <time>2026-04-21T12:18:24.202Z</time>
      </trkpt>
      <trkpt lat="52.033521" lon="8.538225">
        <ele>109.067550</ele>
        <time>2026-04-21T12:18:25.349Z</time>
      </trkpt>
      <trkpt lat="52.033611" lon="8.538244">
        <ele>108.767314</ele>
        <time>2026-04-21T12:18:26.769Z</time>
      </trkpt>
      <trkpt lat="52.033681" lon="8.538148">
        <ele>108.447797</ele>
        <time>2026-04-21T12:18:28.185Z</time>
      </trkpt>
      <trkpt lat="52.033786" lon="8.538217">
        <ele>108.052680</ele>
        <time>2026-04-21T12:18:29.940Z</time>
      </trkpt>
      <trkpt lat="52.033885" lon="8.538262">
        <ele>107.694049</ele>
        <time>2026-04-21T12:18:31.526Z</time>
      </trkpt>
      <trkpt lat="52.034083" lon="8.538298">
        <ele>106.998976</ele>
        <time>2026-04-21T12:18:34.600Z</time>
      </trkpt>
      <trkpt lat="52.034221" lon="8.538320">
        <ele>106.515224</ele>
        <time>2026-04-21T12:18:36.734Z</time>
      </trkpt>
      <trkpt lat="52.035010" lon="8.538464">
        <ele>103.745336</ele>
        <time>2026-04-21T12:18:50.226Z</time>
      </trkpt>
      <trkpt lat="52.035152" lon="8.538466">
        <ele>103.249920</ele>
        <time>2026-04-21T12:18:52.658Z</time>
      </trkpt>
      <trkpt lat="52.035308" lon="8.538479">
        <ele>102.704967</ele>
        <time>2026-04-21T12:18:55.342Z</time>
      </trkpt>
      <trkpt lat="52.035528" lon="8.538527">
        <ele>102.392954</ele>
        <time>2026-04-21T12:18:59.288Z</time>
      </trkpt>
      <trkpt lat="52.035610" lon="8.538551">
        <ele>102.281342</ele>
        <time>2026-04-21T12:19:00.806Z</time>
      </trkpt>
      <trkpt lat="52.035815" lon="8.538613">
        <ele>102.002013</ele>
        <time>2026-04-21T12:19:04.618Z</time>
      </trkpt>
      <trkpt lat="52.036054" lon="8.538687">
        <ele>101.676095</ele>
        <time>2026-04-21T12:19:09.283Z</time>
      </trkpt>
      <trkpt lat="52.036219" lon="8.538737">
        <ele>101.451255</ele>
        <time>2026-04-21T12:19:12.603Z</time>
      </trkpt>
      <trkpt lat="52.036288" lon="8.538758">
        <ele>101.357218</ele>
        <time>2026-04-21T12:19:14.021Z</time>
      </trkpt>
      <trkpt lat="52.036513" lon="8.538814">
        <ele>101.052297</ele>
        <time>2026-04-21T12:19:18.659Z</time>
      </trkpt>
      <trkpt lat="52.036649" lon="8.538855">
        <ele>100.867007</ele>
        <time>2026-04-21T12:19:21.468Z</time>
      </trkpt>
      <trkpt lat="52.036852" lon="8.538921">
        <ele>100.589684</ele>
        <time>2026-04-21T12:19:25.743Z</time>
      </trkpt>
      <trkpt lat="52.036878" lon="8.539113">
        <ele>100.427678</ele>
        <time>2026-04-21T12:19:28.170Z</time>
      </trkpt>
      <trkpt lat="52.037068" lon="8.539122">
        <ele>100.316966</ele>
        <time>2026-04-21T12:19:33.307Z</time>
      </trkpt>
      <trkpt lat="52.037204" lon="8.539168">
        <ele>100.402284</ele>
        <time>2026-04-21T12:19:37.168Z</time>
      </trkpt>
      <trkpt lat="52.037656" lon="8.539484">
        <ele>100.704477</ele>
        <time>2026-04-21T12:19:50.928Z</time>
      </trkpt>
      <trkpt lat="52.037701" lon="8.539540">
        <ele>100.739284</ele>
        <time>2026-04-21T12:19:52.516Z</time>
      </trkpt>
      <trkpt lat="52.037713" lon="8.539613">
        <ele>100.767831</ele>
        <time>2026-04-21T12:19:53.819Z</time>
      </trkpt>
      <trkpt lat="52.037783" lon="8.539674">
        <ele>100.816612</ele>
        <time>2026-04-21T12:19:56.031Z</time>
      </trkpt>
      <trkpt lat="52.037850" lon="8.539732">
        <ele>100.863233</ele>
        <time>2026-04-21T12:19:58.168Z</time>
      </trkpt>
      <trkpt lat="52.037917" lon="8.539702">
        <ele>100.905915</ele>
        <time>2026-04-21T12:20:00.120Z</time>
      </trkpt>
      <trkpt lat="52.038072" lon="8.539812">
        <ele>101.009789</ele>
        <time>2026-04-21T12:20:04.847Z</time>
      </trkpt>
      <trkpt lat="52.038229" lon="8.539988">
        <ele>101.126919</ele>
        <time>2026-04-21T12:20:10.153Z</time>
      </trkpt>
      <trkpt lat="52.038680" lon="8.540337">
        <ele>101.478014</ele>
        <time>2026-04-21T12:20:24.144Z</time>
      </trkpt>
      <trkpt lat="52.039182" lon="8.540810">
        <ele>102.110106</ele>
        <time>2026-04-21T12:20:40.378Z</time>
      </trkpt>
      <trkpt lat="52.039263" lon="8.540901">
        <ele>102.217368</ele>
        <time>2026-04-21T12:20:43.141Z</time>
      </trkpt>
      <trkpt lat="52.039292" lon="8.540984">
        <ele>102.281333</ele>
        <time>2026-04-21T12:20:44.769Z</time>
      </trkpt>
      <trkpt lat="52.039533" lon="8.541273">
        <ele>102.607576</ele>
        <time>2026-04-21T12:20:53.145Z</time>
      </trkpt>
      <trkpt lat="52.039582" lon="8.541332">
        <ele>102.674003</ele>
        <time>2026-04-21T12:20:54.839Z</time>
      </trkpt>
      <trkpt lat="52.039909" lon="8.541725">
        <ele>103.117010</ele>
        <time>2026-04-21T12:21:06.230Z</time>
      </trkpt>
      <trkpt lat="52.040206" lon="8.542135">
        <ele>103.583069</ele>
        <time>2026-04-21T12:21:17.200Z</time>
      </trkpt>
      <trkpt lat="52.040382" lon="8.542393">
        <ele>103.893466</ele>
        <time>2026-04-21T12:21:23.899Z</time>
      </trkpt>
      <trkpt lat="52.040596" lon="8.542773">
        <ele>104.308547</ele>
        <time>2026-04-21T12:21:32.883Z</time>
      </trkpt>
      <trkpt lat="52.040648" lon="8.542915">
        <ele>104.441689</ele>
        <time>2026-04-21T12:21:35.754Z</time>
      </trkpt>
      <trkpt lat="52.040711" lon="8.543068">
        <ele>104.590023</ele>
        <time>2026-04-21T12:21:38.930Z</time>
      </trkpt>
      <trkpt lat="52.040714" lon="8.543182">
        <ele>104.681952</ele>
        <time>2026-04-21T12:21:40.601Z</time>
      </trkpt>
      <trkpt lat="52.040714" lon="8.543275">
        <ele>104.756877</ele>
        <time>2026-04-21T12:21:41.957Z</time>
      </trkpt>
      <trkpt lat="52.040693" lon="8.543836">
        <ele>105.209684</ele>
        <time>2026-04-21T12:21:50.016Z</time>
      </trkpt>
      <trkpt lat="52.040870" lon="8.543897">
        <ele>105.446667</ele>
        <time>2026-04-21T12:21:54.110Z</time>
      </trkpt>
      <trkpt lat="52.041032" lon="8.543915">
        <ele>105.659348</ele>
        <time>2026-04-21T12:21:57.723Z</time>
      </trkpt>
      <trkpt lat="52.041259" lon="8.543938">
        <ele>105.623122</ele>
        <time>2026-04-21T12:22:02.689Z</time>
      </trkpt>
      <trkpt lat="52.041360" lon="8.543948">
        <ele>105.588902</ele>
        <time>2026-04-21T12:22:04.854Z</time>
      </trkpt>
      <trkpt lat="52.041829" lon="8.544016">
        <ele>105.429665</ele>
        <time>2026-04-21T12:22:14.429Z</time>
      </trkpt>
      <trkpt lat="52.042001" lon="8.543998">
        <ele>105.371377</ele>
        <time>2026-04-21T12:22:17.861Z</time>
      </trkpt>
      <trkpt lat="52.042372" lon="8.544043">
        <ele>105.245562</ele>
        <time>2026-04-21T12:22:25.299Z</time>
      </trkpt>
      <trkpt lat="52.042709" lon="8.544084">
        <ele>105.131276</ele>
        <time>2026-04-21T12:22:32.011Z</time>
      </trkpt>
      <trkpt lat="52.042986" lon="8.544127">
        <ele>105.030139</ele>
        <time>2026-04-21T12:22:37.580Z</time>
      </trkpt>
      <trkpt lat="52.043183" lon="8.544253">
        <ele>104.947658</ele>
        <time>2026-04-21T12:22:41.995Z</time>
      </trkpt>
      <trkpt lat="52.043283" lon="8.544386">
        <ele>104.897321</ele>
        <time>2026-04-21T12:22:44.686Z</time>
      </trkpt>
      <trkpt lat="52.043331" lon="8.544456">
        <ele>104.872198</ele>
        <time>2026-04-21T12:22:46.065Z</time>
      </trkpt>
      <trkpt lat="52.043667" lon="8.544904">
        <ele>104.702893</ele>
        <time>2026-04-21T12:22:55.097Z</time>
      </trkpt>
      <trkpt lat="52.043738" lon="8.544997">
        <ele>104.667369</ele>
        <time>2026-04-21T12:22:56.964Z</time>
      </trkpt>
      <trkpt lat="52.043909" lon="8.545222">
        <ele>104.581660</ele>
        <time>2026-04-21T12:23:01.523Z</time>
      </trkpt>
      <trkpt lat="52.044093" lon="8.545463">
        <ele>104.489601</ele>
        <time>2026-04-21T12:23:06.291Z</time>
      </trkpt>
      <trkpt lat="52.044368" lon="8.545824">
        <ele>104.382690</ele>
        <time>2026-04-21T12:23:13.271Z</time>
      </trkpt>
      <trkpt lat="52.044985" lon="8.546615">
        <ele>104.383292</ele>
        <time>2026-04-21T12:23:29.021Z</time>
      </trkpt>
      <trkpt lat="52.045023" lon="8.546664">
        <ele>104.383330</ele>
        <time>2026-04-21T12:23:30.016Z</time>
      </trkpt>
      <trkpt lat="52.045177" lon="8.546873">
        <ele>104.383483</ele>
        <time>2026-04-21T12:23:34.177Z</time>
      </trkpt>
      <trkpt lat="52.045239" lon="8.546950">
        <ele>104.383543</ele>
        <time>2026-04-21T12:23:35.793Z</time>
      </trkpt>
      <trkpt lat="52.045358" lon="8.547097">
        <ele>104.383658</ele>
        <time>2026-04-21T12:23:38.999Z</time>
      </trkpt>
      <trkpt lat="52.045845" lon="8.547661">
        <ele>104.666540</ele>
        <time>2026-04-21T12:23:52.297Z</time>
      </trkpt>
      <trkpt lat="52.046221" lon="8.548021">
        <ele>105.544279</ele>
        <time>2026-04-21T12:24:02.401Z</time>
      </trkpt>
      <trkpt lat="52.046507" lon="8.548240">
        <ele>106.180191</ele>
        <time>2026-04-21T12:24:09.902Z</time>
      </trkpt>
      <trkpt lat="52.046910" lon="8.548412">
        <ele>107.018313</ele>
        <time>2026-04-21T12:24:19.859Z</time>
      </trkpt>
      <trkpt lat="52.047112" lon="8.548518">
        <ele>107.445285</ele>
        <time>2026-04-21T12:24:24.925Z</time>
      </trkpt>
      <trkpt lat="52.047275" lon="8.548622">
        <ele>107.797509</ele>
        <time>2026-04-21T12:24:29.098Z</time>
      </trkpt>
      <trkpt lat="52.047560" lon="8.548780">
        <ele>108.246981</ele>
        <time>2026-04-21T12:24:36.240Z</time>
      </trkpt>
      <trkpt lat="52.048252" lon="8.549142">
        <ele>109.139719</ele>
        <time>2026-04-21T12:24:53.013Z</time>
      </trkpt>
      <trkpt lat="52.048333" lon="8.549185">
        <ele>109.244362</ele>
        <time>2026-04-21T12:24:54.925Z</time>
      </trkpt>
      <trkpt lat="52.048341" lon="8.549323">
        <ele>109.349052</ele>
        <time>2026-04-21T12:24:56.839Z</time>
      </trkpt>
      <trkpt lat="52.048397" lon="8.549379">
        <ele>109.429790</ele>
        <time>2026-04-21T12:24:58.307Z</time>
      </trkpt>
      <trkpt lat="52.048459" lon="8.549352">
        <ele>109.508615</ele>
        <time>2026-04-21T12:24:59.745Z</time>
      </trkpt>
      <trkpt lat="52.048492" lon="8.549261">
        <ele>109.588403</ele>
        <time>2026-04-21T12:25:01.185Z</time>
      </trkpt>
      <trkpt lat="52.048582" lon="8.549300">
        <ele>109.702789</ele>
        <time>2026-04-21T12:25:03.234Z</time>
      </trkpt>
      <trkpt lat="52.048759" lon="8.549387">
        <ele>109.929876</ele>
        <time>2026-04-21T12:25:07.300Z</time>
      </trkpt>
      <trkpt lat="52.049034" lon="8.549522">
        <ele>110.191134</ele>
        <time>2026-04-21T12:25:13.513Z</time>
      </trkpt>
      <trkpt lat="52.049082" lon="8.549544">
        <ele>110.174167</ele>
        <time>2026-04-21T12:25:14.584Z</time>
      </trkpt>
      <trkpt lat="52.049274" lon="8.549623">
        <ele>110.106781</ele>
        <time>2026-04-21T12:25:18.730Z</time>
      </trkpt>
      <trkpt lat="52.049489" lon="8.549747">
        <ele>110.029164</ele>
        <time>2026-04-21T12:25:23.367Z</time>
      </trkpt>
      <trkpt lat="52.049546" lon="8.549788">
        <ele>110.007958</ele>
        <time>2026-04-21T12:25:24.642Z</time>
      </trkpt>
      <trkpt lat="52.050063" lon="8.550273">
        <ele>109.804879</ele>
        <time>2026-04-21T12:25:36.541Z</time>
      </trkpt>
      <trkpt lat="52.050367" lon="8.550608">
        <ele>109.679932</ele>
        <time>2026-04-21T12:25:44.011Z</time>
      </trkpt>
      <trkpt lat="52.050398" lon="8.550641">
        <ele>109.667326</ele>
        <time>2026-04-21T12:25:44.753Z</time>
      </trkpt>
      <trkpt lat="52.050461" lon="8.550712">
        <ele>109.641246</ele>
        <time>2026-04-21T12:25:46.338Z</time>
      </trkpt>
      <trkpt lat="52.050679" lon="8.550953">
        <ele>109.468982</ele>
        <time>2026-04-21T12:25:51.697Z</time>
      </trkpt>
      <trkpt lat="52.050677" lon="8.551094">
        <ele>109.388131</ele>
        <time>2026-04-21T12:25:53.461Z</time>
      </trkpt>
      <trkpt lat="52.050717" lon="8.551165">
        <ele>109.332932</ele>
        <time>2026-04-21T12:25:54.651Z</time>
      </trkpt>
      <trkpt lat="52.050777" lon="8.551185">
        <ele>109.275838</ele>
        <time>2026-04-21T12:25:55.911Z</time>
      </trkpt>
      <trkpt lat="52.050852" lon="8.551101">
        <ele>109.190946</ele>
        <time>2026-04-21T12:25:57.707Z</time>
      </trkpt>
      <trkpt lat="52.051083" lon="8.551268">
        <ele>108.955289</ele>
        <time>2026-04-21T12:26:02.659Z</time>
      </trkpt>
      <trkpt lat="52.051183" lon="8.551338">
        <ele>108.853801</ele>
        <time>2026-04-21T12:26:04.795Z</time>
      </trkpt>
      <trkpt lat="52.051459" lon="8.551530">
        <ele>108.573964</ele>
        <time>2026-04-21T12:26:10.621Z</time>
      </trkpt>
      <trkpt lat="52.051606" lon="8.551632">
        <ele>108.424980</ele>
        <time>2026-04-21T12:26:13.739Z</time>
      </trkpt>
      <trkpt lat="52.051763" lon="8.551740">
        <ele>108.266070</ele>
        <time>2026-04-21T12:26:17.046Z</time>
      </trkpt>
      <trkpt lat="52.052005" lon="8.551913">
        <ele>108.019646</ele>
        <time>2026-04-21T12:26:22.103Z</time>
      </trkpt>
      <trkpt lat="52.052055" lon="8.552023">
        <ele>107.941233</ele>
        <time>2026-04-21T12:26:23.735Z</time>
      </trkpt>
      <trkpt lat="52.052217" lon="8.552140">
        <ele>107.548089</ele>
        <time>2026-04-21T12:26:27.150Z</time>
      </trkpt>
      <trkpt lat="52.052502" lon="8.552251">
        <ele>106.849494</ele>
        <time>2026-04-21T12:26:32.707Z</time>
      </trkpt>
      <trkpt lat="52.052774" lon="8.552224">
        <ele>106.199896</ele>
        <time>2026-04-21T12:26:37.791Z</time>
      </trkpt>
      <trkpt lat="52.053152" lon="8.552033">
        <ele>105.256326</ele>
        <time>2026-04-21T12:26:44.898Z</time>
      </trkpt>
      <trkpt lat="52.053195" lon="8.552011">
        <ele>105.148870</ele>
        <time>2026-04-21T12:26:45.705Z</time>
      </trkpt>
      <trkpt lat="52.053691" lon="8.551768">
        <ele>103.914018</ele>
        <time>2026-04-21T12:26:54.697Z</time>
      </trkpt>
      <trkpt lat="52.053896" lon="8.551678">
        <ele>103.225476</ele>
        <time>2026-04-21T12:26:58.274Z</time>
      </trkpt>
      <trkpt lat="52.054011" lon="8.551654">
        <ele>102.726962</ele>
        <time>2026-04-21T12:27:00.196Z</time>
      </trkpt>
      <trkpt lat="52.054416" lon="8.551645">
        <ele>100.985442</ele>
        <time>2026-04-21T12:27:06.783Z</time>
      </trkpt>
      <trkpt lat="52.054698" lon="8.551752">
        <ele>99.740376</ele>
        <time>2026-04-21T12:27:11.396Z</time>
      </trkpt>
      <trkpt lat="52.056233" lon="8.552615">
        <ele>93.535797</ele>
        <time>2026-04-21T12:27:37.583Z</time>
      </trkpt>
      <trkpt lat="52.056247" lon="8.552554">
        <ele>93.406289</ele>
        <time>2026-04-21T12:27:38.246Z</time>
      </trkpt>
      <trkpt lat="52.056268" lon="8.552498">
        <ele>93.275821</ele>
        <time>2026-04-21T12:27:38.905Z</time>
      </trkpt>
      <trkpt lat="52.056440" lon="8.552046">
        <ele>92.218532</ele>
        <time>2026-04-21T12:27:44.614Z</time>
      </trkpt>
      <trkpt lat="52.056449" lon="8.552024">
        <ele>92.165973</ele>
        <time>2026-04-21T12:27:44.908Z</time>
      </trkpt>
      <trkpt lat="52.056472" lon="8.551962">
        <ele>92.021947</ele>
        <time>2026-04-21T12:27:45.699Z</time>
      </trkpt>
      <trkpt lat="52.056708" lon="8.551290">
        <ele>90.482663</ele>
        <time>2026-04-21T12:27:54.303Z</time>
      </trkpt>
      <trkpt lat="52.056743" lon="8.551309">
        <ele>90.363303</ele>
        <time>2026-04-21T12:27:54.982Z</time>
      </trkpt>
      <trkpt lat="52.056869" lon="8.551319">
        <ele>90.011372</ele>
        <time>2026-04-21T12:27:57.353Z</time>
      </trkpt>
      <trkpt lat="52.057268" lon="8.551283">
        <ele>89.287007</ele>
        <time>2026-04-21T12:28:04.874Z</time>
      </trkpt>
      <trkpt lat="52.057293" lon="8.551280">
        <ele>89.241567</ele>
        <time>2026-04-21T12:28:05.359Z</time>
      </trkpt>
      <trkpt lat="52.057166" lon="8.551973">
        <ele>88.435599</ele>
        <time>2026-04-21T12:28:16.220Z</time>
      </trkpt>
      <trkpt lat="52.057060" lon="8.552748">
        <ele>87.550700</ele>
        <time>2026-04-21T12:28:27.869Z</time>
      </trkpt>
      <trkpt lat="52.057123" lon="8.552778">
        <ele>87.431707</ele>
        <time>2026-04-21T12:28:29.036Z</time>
      </trkpt>
      <trkpt lat="52.057184" lon="8.552808">
        <ele>87.316190</ele>
        <time>2026-04-21T12:28:30.159Z</time>
      </trkpt>
      <trkpt lat="52.057194" lon="8.552864">
        <ele>87.251195</ele>
        <time>2026-04-21T12:28:31.042Z</time>
      </trkpt>
      <trkpt lat="52.057168" lon="8.552994">
        <ele>87.098830</ele>
        <time>2026-04-21T12:28:32.552Z</time>
      </trkpt>
      <trkpt lat="52.057141" lon="8.553107">
        <ele>86.963709</ele>
        <time>2026-04-21T12:28:33.896Z</time>
      </trkpt>
      <trkpt lat="52.058092" lon="8.553685">
        <ele>85.851544</ele>
        <time>2026-04-21T12:28:59.959Z</time>
      </trkpt>
      <trkpt lat="52.058338" lon="8.553866">
        <ele>85.571845</ele>
        <time>2026-04-21T12:29:07.155Z</time>
      </trkpt>
      <trkpt lat="52.058613" lon="8.554071">
        <ele>85.258471</ele>
        <time>2026-04-21T12:29:15.203Z</time>
      </trkpt>
      <trkpt lat="52.058884" lon="8.554342">
        <ele>84.943770</ele>
        <time>2026-04-21T12:29:23.748Z</time>
      </trkpt>
      <trkpt lat="52.059183" lon="8.554652">
        <ele>84.755657</ele>
        <time>2026-04-21T12:29:33.271Z</time>
      </trkpt>
      <trkpt lat="52.059000" lon="8.555113">
        <ele>84.576668</ele>
        <time>2026-04-21T12:29:42.352Z</time>
      </trkpt>
      <trkpt lat="52.058960" lon="8.555298">
        <ele>84.512701</ele>
        <time>2026-04-21T12:29:45.579Z</time>
      </trkpt>
      <trkpt lat="52.058758" lon="8.557624">
        <ele>84.073190</ele>
        <time>2026-04-21T12:30:24.546Z</time>
      </trkpt>
      <trkpt lat="52.058745" lon="8.557762">
        <ele>84.085167</ele>
        <time>2026-04-21T12:30:26.946Z</time>
      </trkpt>
      <trkpt lat="52.058694" lon="8.558321">
        <ele>84.133650</ele>
        <time>2026-04-21T12:30:36.684Z</time>
      </trkpt>
      <trkpt lat="52.058905" lon="8.558399">
        <ele>84.163843</ele>
        <time>2026-04-21T12:30:42.732Z</time>
      </trkpt>
      <trkpt lat="52.059309" lon="8.558647">
        <ele>84.224095</ele>
        <time>2026-04-21T12:30:54.584Z</time>
      </trkpt>
      <trkpt lat="52.059220" lon="8.558937">
        <ele>84.251902</ele>
        <time>2026-04-21T12:31:08.422Z</time>
      </trkpt>
      <trkpt lat="52.059168" lon="8.558900">
        <ele>84.252306</ele>
        <time>2026-04-21T12:31:12.377Z</time>
      </trkpt>
      <trkpt lat="52.059220" lon="8.558937">
        <ele>84.244150</ele>
        <time>2026-04-21T12:31:16.333Z</time>
      </trkpt>
      <trkpt lat="52.059309" lon="8.558647">
        <ele>84.215511</ele>
        <time>2026-04-21T12:31:30.170Z</time>
      </trkpt>
      <trkpt lat="52.058905" lon="8.558399">
        <ele>84.153456</ele>
        <time>2026-04-21T12:31:42.091Z</time>
      </trkpt>
      <trkpt lat="52.058694" lon="8.558321">
        <ele>84.122360</ele>
        <time>2026-04-21T12:31:47.678Z</time>
      </trkpt>
      <trkpt lat="52.058745" lon="8.557762">
        <ele>84.072427</ele>
        <time>2026-04-21T12:31:56.788Z</time>
      </trkpt>
      <trkpt lat="52.058758" lon="8.557624">
        <ele>84.060091</ele>
        <time>2026-04-21T12:31:59.017Z</time>
      </trkpt>
      <trkpt lat="52.058960" lon="8.555298">
        <ele>84.559822</ele>
        <time>2026-04-21T12:32:39.279Z</time>
      </trkpt>
      <trkpt lat="52.059000" lon="8.555113">
        <ele>84.626951</ele>
        <time>2026-04-21T12:32:42.652Z</time>
      </trkpt>
      <trkpt lat="52.059183" lon="8.554652">
        <ele>84.814787</ele>
        <time>2026-04-21T12:32:52.094Z</time>
      </trkpt>
      <trkpt lat="52.058884" lon="8.554342">
        <ele>85.020685</ele>
        <time>2026-04-21T12:33:01.984Z</time>
      </trkpt>
      <trkpt lat="52.058927" lon="8.554288">
        <ele>85.070402</ele>
        <time>2026-04-21T12:33:03.172Z</time>
      </trkpt>
      <trkpt lat="52.058994" lon="8.554248">
        <ele>85.135718</ele>
        <time>2026-04-21T12:33:04.748Z</time>
      </trkpt>
      <trkpt lat="52.058767" lon="8.554008">
        <ele>85.383494</ele>
        <time>2026-04-21T12:33:12.319Z</time>
      </trkpt>
      <trkpt lat="52.058385" lon="8.553694">
        <ele>85.775196</ele>
        <time>2026-04-21T12:33:24.270Z</time>
      </trkpt>
      <trkpt lat="52.058312" lon="8.553642">
        <ele>85.848129</ele>
        <time>2026-04-21T12:33:26.496Z</time>
      </trkpt>
      <trkpt lat="52.058270" lon="8.553611">
        <ele>85.890339</ele>
        <time>2026-04-21T12:33:27.790Z</time>
      </trkpt>
      <trkpt lat="52.057649" lon="8.553213">
        <ele>86.501185</ele>
        <time>2026-04-21T12:33:46.480Z</time>
      </trkpt>
      <trkpt lat="52.057454" lon="8.553022">
        <ele>86.784180</ele>
        <time>2026-04-21T12:33:52.868Z</time>
      </trkpt>
      <trkpt lat="52.057194" lon="8.552864">
        <ele>87.332475</ele>
        <time>2026-04-21T12:34:00.659Z</time>
      </trkpt>
      <trkpt lat="52.057184" lon="8.552808">
        <ele>87.403306</ele>
        <time>2026-04-21T12:34:01.671Z</time>
      </trkpt>
      <trkpt lat="52.057123" lon="8.552778">
        <ele>87.529196</ele>
        <time>2026-04-21T12:34:03.141Z</time>
      </trkpt>
      <trkpt lat="52.057060" lon="8.552748">
        <ele>87.658873</ele>
        <time>2026-04-21T12:34:04.662Z</time>
      </trkpt>
      <trkpt lat="52.057166" lon="8.551973">
        <ele>88.623230</ele>
        <time>2026-04-21T12:34:18.425Z</time>
      </trkpt>
      <trkpt lat="52.057293" lon="8.551280">
        <ele>89.501568</ele>
        <time>2026-04-21T12:34:31.034Z</time>
      </trkpt>
      <trkpt lat="52.057355" lon="8.550694">
        <ele>90.225372</ele>
        <time>2026-04-21T12:34:41.385Z</time>
      </trkpt>
      <trkpt lat="52.057414" lon="8.550120">
        <ele>90.975374</ele>
        <time>2026-04-21T12:34:51.505Z</time>
      </trkpt>
      <trkpt lat="52.057429" lon="8.549979">
        <ele>91.159786</ele>
        <time>2026-04-21T12:34:54.003Z</time>
      </trkpt>
      <trkpt lat="52.057465" lon="8.549318">
        <ele>92.014978</ele>
        <time>2026-04-21T12:35:05.570Z</time>
      </trkpt>
      <trkpt lat="52.057490" lon="8.549065">
        <ele>92.345213</ele>
        <time>2026-04-21T12:35:10.021Z</time>
      </trkpt>
      <trkpt lat="52.057549" lon="8.548156">
        <ele>93.523184</ele>
        <time>2026-04-21T12:35:25.860Z</time>
      </trkpt>
      <trkpt lat="52.057539" lon="8.547609">
        <ele>94.027322</ele>
        <time>2026-04-21T12:35:35.329Z</time>
      </trkpt>
      <trkpt lat="52.057528" lon="8.547352">
        <ele>94.102933</ele>
        <time>2026-04-21T12:35:39.779Z</time>
      </trkpt>
      <trkpt lat="52.057531" lon="8.547302">
        <ele>94.117678</ele>
        <time>2026-04-21T12:35:40.645Z</time>
      </trkpt>
      <trkpt lat="52.057585" lon="8.546873">
        <ele>94.246200</ele>
        <time>2026-04-21T12:35:48.206Z</time>
      </trkpt>
      <trkpt lat="52.057598" lon="8.546194">
        <ele>94.445582</ele>
        <time>2026-04-21T12:35:59.897Z</time>
      </trkpt>
      <trkpt lat="52.057668" lon="8.545628">
        <ele>94.615028</ele>
        <time>2026-04-21T12:36:09.739Z</time>
      </trkpt>
      <trkpt lat="52.057712" lon="8.545650">
        <ele>94.637001</ele>
        <time>2026-04-21T12:36:10.976Z</time>
      </trkpt>
      <trkpt lat="52.057747" lon="8.545455">
        <ele>94.696622</ele>
        <time>2026-04-21T12:36:13.496Z</time>
      </trkpt>
      <trkpt lat="52.057993" lon="8.544222">
        <ele>94.274954</ele>
        <time>2026-04-21T12:36:28.652Z</time>
      </trkpt>
      <trkpt lat="52.058038" lon="8.543984">
        <ele>94.114036</ele>
        <time>2026-04-21T12:36:31.456Z</time>
      </trkpt>
      <trkpt lat="52.058076" lon="8.543985">
        <ele>94.074090</ele>
        <time>2026-04-21T12:36:32.188Z</time>
      </trkpt>
      <trkpt lat="52.058118" lon="8.543748">
        <ele>93.914691</ele>
        <time>2026-04-21T12:36:35.087Z</time>
      </trkpt>
      <trkpt lat="52.058147" lon="8.543664">
        <ele>93.852433</ele>
        <time>2026-04-21T12:36:36.566Z</time>
      </trkpt>
      <trkpt lat="52.058237" lon="8.542907">
        <ele>93.354151</ele>
        <time>2026-04-21T12:36:49.047Z</time>
      </trkpt>
      <trkpt lat="52.058308" lon="8.541861">
        <ele>92.530999</ele>
        <time>2026-04-21T12:37:06.349Z</time>
      </trkpt>
      <trkpt lat="52.058316" lon="8.541391">
        <ele>92.061235</ele>
        <time>2026-04-21T12:37:13.757Z</time>
      </trkpt>
      <trkpt lat="52.058281" lon="8.540702">
        <ele>91.370500</ele>
        <time>2026-04-21T12:37:24.084Z</time>
      </trkpt>
      <trkpt lat="52.058371" lon="8.540652">
        <ele>91.215958</ele>
        <time>2026-04-21T12:37:25.734Z</time>
      </trkpt>
      <trkpt lat="52.058562" lon="8.540380">
        <ele>90.803431</ele>
        <time>2026-04-21T12:37:30.258Z</time>
      </trkpt>
      <trkpt lat="52.058818" lon="8.540171">
        <ele>90.337976</ele>
        <time>2026-04-21T12:37:35.354Z</time>
      </trkpt>
      <trkpt lat="52.058995" lon="8.540093">
        <ele>90.039990</ele>
        <time>2026-04-21T12:37:38.447Z</time>
      </trkpt>
      <trkpt lat="52.059041" lon="8.539624">
        <ele>89.763667</ele>
        <time>2026-04-21T12:37:43.382Z</time>
      </trkpt>
      <trkpt lat="52.059541" lon="8.537943">
        <ele>88.723521</ele>
        <time>2026-04-21T12:38:05.498Z</time>
      </trkpt>
      <trkpt lat="52.059837" lon="8.536938">
        <ele>88.764531</ele>
        <time>2026-04-21T12:38:20.580Z</time>
      </trkpt>
      <trkpt lat="52.059967" lon="8.536762">
        <ele>88.972019</ele>
        <time>2026-04-21T12:38:24.349Z</time>
      </trkpt>
      <trkpt lat="52.060039" lon="8.536737">
        <ele>89.062331</ele>
        <time>2026-04-21T12:38:25.999Z</time>
      </trkpt>
      <trkpt lat="52.060059" lon="8.536495">
        <ele>89.246493</ele>
        <time>2026-04-21T12:38:29.370Z</time>
      </trkpt>
      <trkpt lat="52.060103" lon="8.535675">
        <ele>89.867299</ele>
        <time>2026-04-21T12:38:40.794Z</time>
      </trkpt>
      <trkpt lat="52.060143" lon="8.534871">
        <ele>90.475668</ele>
        <time>2026-04-21T12:38:52.228Z</time>
      </trkpt>
      <trkpt lat="52.060164" lon="8.534611">
        <ele>90.791495</ele>
        <time>2026-04-21T12:38:56.067Z</time>
      </trkpt>
      <trkpt lat="52.060301" lon="8.534657">
        <ele>91.206706</ele>
        <time>2026-04-21T12:38:59.422Z</time>
      </trkpt>
      <trkpt lat="52.060557" lon="8.535106">
        <ele>92.324183</ele>
        <time>2026-04-21T12:39:08.552Z</time>
      </trkpt>
      <trkpt lat="52.060718" lon="8.535367">
        <ele>92.998884</ele>
        <time>2026-04-21T12:39:14.101Z</time>
      </trkpt>
      <trkpt lat="52.060812" lon="8.535431">
        <ele>93.301349</ele>
        <time>2026-04-21T12:39:16.600Z</time>
      </trkpt>
      <trkpt lat="52.060901" lon="8.535433">
        <ele>93.565540</ele>
        <time>2026-04-21T12:39:18.777Z</time>
      </trkpt>
      <trkpt lat="52.061118" lon="8.535329">
        <ele>94.237008</ele>
        <time>2026-04-21T12:39:24.356Z</time>
      </trkpt>
      <trkpt lat="52.061262" lon="8.535195">
        <ele>94.729429</ele>
        <time>2026-04-21T12:39:28.480Z</time>
      </trkpt>
      <trkpt lat="52.061386" lon="8.535011">
        <ele>95.227633</ele>
        <time>2026-04-21T12:39:32.673Z</time>
      </trkpt>
      <trkpt lat="52.061431" lon="8.534590">
        <ele>95.962322</ele>
        <time>2026-04-21T12:39:39.211Z</time>
      </trkpt>
      <trkpt lat="52.061518" lon="8.533391">
        <ele>96.899434</ele>
        <time>2026-04-21T12:39:56.853Z</time>
      </trkpt>
      <trkpt lat="52.061540" lon="8.533101">
        <ele>97.126236</ele>
        <time>2026-04-21T12:40:00.937Z</time>
      </trkpt>
      <trkpt lat="52.061689" lon="8.531168">
        <ele>98.204920</ele>
        <time>2026-04-21T12:40:26.057Z</time>
      </trkpt>
      <trkpt lat="52.061751" lon="8.530419">
        <ele>98.211922</ele>
        <time>2026-04-21T12:40:35.369Z</time>
      </trkpt>
      <trkpt lat="52.061758" lon="8.530328">
        <ele>98.212771</ele>
        <time>2026-04-21T12:40:36.525Z</time>
      </trkpt>
      <trkpt lat="52.061814" lon="8.529640">
        <ele>98.219201</ele>
        <time>2026-04-21T12:40:45.375Z</time>
      </trkpt>
      <trkpt lat="52.061825" lon="8.529498">
        <ele>98.220526</ele>
        <time>2026-04-21T12:40:47.218Z</time>
      </trkpt>
      <trkpt lat="52.061994" lon="8.527293">
        <ele>98.452440</ele>
        <time>2026-04-21T12:41:17.486Z</time>
      </trkpt>
      <trkpt lat="52.062016" lon="8.526742">
        <ele>98.533018</ele>
        <time>2026-04-21T12:41:24.930Z</time>
      </trkpt>
      <trkpt lat="52.062013" lon="8.526676">
        <ele>98.542675</ele>
        <time>2026-04-21T12:41:25.792Z</time>
      </trkpt>
      <trkpt lat="52.061994" lon="8.526183">
        <ele>98.614761</ele>
        <time>2026-04-21T12:41:32.074Z</time>
      </trkpt>
      <trkpt lat="52.061968" lon="8.525300">
        <ele>98.387920</ele>
        <time>2026-04-21T12:41:42.798Z</time>
      </trkpt>
      <trkpt lat="52.061939" lon="8.524356">
        <ele>97.980813</ele>
        <time>2026-04-21T12:41:53.996Z</time>
      </trkpt>
      <trkpt lat="52.061946" lon="8.523890">
        <ele>97.780038</ele>
        <time>2026-04-21T12:41:59.537Z</time>
      </trkpt>
      <trkpt lat="52.062317" lon="8.519996">
        <ele>96.234427</ele>
        <time>2026-04-21T12:42:48.738Z</time>
      </trkpt>
      <trkpt lat="52.062343" lon="8.519735">
        <ele>95.933070</ele>
        <time>2026-04-21T12:42:51.784Z</time>
      </trkpt>
      <trkpt lat="52.062365" lon="8.519325">
        <ele>95.463992</ele>
        <time>2026-04-21T12:42:56.314Z</time>
      </trkpt>
      <trkpt lat="52.062348" lon="8.519070">
        <ele>95.171650</ele>
        <time>2026-04-21T12:42:59.073Z</time>
      </trkpt>
      <trkpt lat="52.062396" lon="8.519055">
        <ele>95.081037</ele>
        <time>2026-04-21T12:42:59.953Z</time>
      </trkpt>
      <trkpt lat="52.062324" lon="8.518516">
        <ele>94.452374</ele>
        <time>2026-04-21T12:43:05.760Z</time>
      </trkpt>
      <trkpt lat="52.062077" lon="8.517242">
        <ele>92.975326</ele>
        <time>2026-04-21T12:43:19.905Z</time>
      </trkpt>
      <trkpt lat="52.062071" lon="8.516998">
        <ele>92.818249</ele>
        <time>2026-04-21T12:43:22.558Z</time>
      </trkpt>
      <trkpt lat="52.062250" lon="8.515582">
        <ele>91.888363</ele>
        <time>2026-04-21T12:43:38.578Z</time>
      </trkpt>
      <trkpt lat="52.061363" lon="8.515170">
        <ele>91.451343</ele>
        <time>2026-04-21T12:43:57.917Z</time>
      </trkpt>
      <trkpt lat="52.061298" lon="8.515138">
        <ele>91.544008</ele>
        <time>2026-04-21T12:43:59.443Z</time>
      </trkpt>
      <trkpt lat="52.060246" lon="8.514649">
        <ele>93.036905</ele>
        <time>2026-04-21T12:44:24.573Z</time>
      </trkpt>
      <trkpt lat="52.060013" lon="8.514543">
        <ele>93.367031</ele>
        <time>2026-04-21T12:44:30.334Z</time>
      </trkpt>
      <trkpt lat="52.059386" lon="8.514254">
        <ele>94.315339</ele>
        <time>2026-04-21T12:44:45.602Z</time>
      </trkpt>
      <trkpt lat="52.058968" lon="8.514053">
        <ele>94.964197</ele>
        <time>2026-04-21T12:44:55.733Z</time>
      </trkpt>
      <trkpt lat="52.058945" lon="8.513853">
        <ele>95.150424</ele>
        <time>2026-04-21T12:44:58.614Z</time>
      </trkpt>
      <trkpt lat="52.059082" lon="8.513059">
        <ele>95.905214</ele>
        <time>2026-04-21T12:45:10.186Z</time>
      </trkpt>
      <trkpt lat="52.059204" lon="8.512151">
        <ele>96.402283</ele>
        <time>2026-04-21T12:45:22.766Z</time>
      </trkpt>
      <trkpt lat="52.059227" lon="8.511938">
        <ele>96.451870</ele>
        <time>2026-04-21T12:45:25.582Z</time>
      </trkpt>
      <trkpt lat="52.059291" lon="8.511246">
        <ele>96.612326</ele>
        <time>2026-04-21T12:45:34.733Z</time>
      </trkpt>
      <trkpt lat="52.059314" lon="8.510333">
        <ele>96.821845</ele>
        <time>2026-04-21T12:45:46.718Z</time>
      </trkpt>
      <trkpt lat="52.059345" lon="8.508886">
        <ele>97.253981</ele>
        <time>2026-04-21T12:46:06.289Z</time>
      </trkpt>
      <trkpt lat="52.059363" lon="8.508062">
        <ele>97.538189</ele>
        <time>2026-04-21T12:46:17.739Z</time>
      </trkpt>
      <trkpt lat="52.059368" lon="8.507820">
        <ele>97.621653</ele>
        <time>2026-04-21T12:46:21.063Z</time>
      </trkpt>
      <trkpt lat="52.059411" lon="8.505304">
        <ele>98.261550</ele>
        <time>2026-04-21T12:46:54.160Z</time>
      </trkpt>
      <trkpt lat="52.059317" lon="8.503658">
        <ele>98.579300</ele>
        <time>2026-04-21T12:47:16.423Z</time>
      </trkpt>
      <trkpt lat="52.059264" lon="8.503150">
        <ele>98.669027</ele>
        <time>2026-04-21T12:47:23.433Z</time>
      </trkpt>
      <trkpt lat="52.059229" lon="8.502817">
        <ele>98.727856</ele>
        <time>2026-04-21T12:47:28.004Z</time>
      </trkpt>
      <trkpt lat="52.059016" lon="8.501871">
        <ele>98.903291</ele>
        <time>2026-04-21T12:47:41.391Z</time>
      </trkpt>
      <trkpt lat="52.058756" lon="8.501075">
        <ele>99.024827</ele>
        <time>2026-04-21T12:47:53.021Z</time>
      </trkpt>
      <trkpt lat="52.058534" lon="8.500394">
        <ele>98.856761</ele>
        <time>2026-04-21T12:48:02.838Z</time>
      </trkpt>
      <trkpt lat="52.058339" lon="8.499612">
        <ele>98.672761</ele>
        <time>2026-04-21T12:48:13.536Z</time>
      </trkpt>
      <trkpt lat="52.058270" lon="8.499258">
        <ele>98.591787</ele>
        <time>2026-04-21T12:48:18.271Z</time>
      </trkpt>
      <trkpt lat="52.058105" lon="8.498074">
        <ele>98.193100</ele>
        <time>2026-04-21T12:48:33.192Z</time>
      </trkpt>
      <trkpt lat="52.058091" lon="8.497420">
        <ele>97.810268</ele>
        <time>2026-04-21T12:48:40.817Z</time>
      </trkpt>
      <trkpt lat="52.058132" lon="8.497313">
        <ele>97.736511</ele>
        <time>2026-04-21T12:48:42.160Z</time>
      </trkpt>
      <trkpt lat="52.058261" lon="8.497129">
        <ele>97.573258</ele>
        <time>2026-04-21T12:48:45.217Z</time>
      </trkpt>
      <trkpt lat="52.058618" lon="8.496824">
        <ele>97.189575</ele>
        <time>2026-04-21T12:48:52.794Z</time>
      </trkpt>
      <trkpt lat="52.058867" lon="8.496611">
        <ele>96.921892</ele>
        <time>2026-04-21T12:48:58.338Z</time>
      </trkpt>
      <trkpt lat="52.059066" lon="8.496438">
        <ele>96.707201</ele>
        <time>2026-04-21T12:49:02.795Z</time>
      </trkpt>
      <trkpt lat="52.059140" lon="8.496373">
        <ele>96.732178</ele>
        <time>2026-04-21T12:49:04.509Z</time>
      </trkpt>
      <trkpt lat="52.059233" lon="8.496267">
        <ele>96.790565</ele>
        <time>2026-04-21T12:49:06.891Z</time>
      </trkpt>
      <trkpt lat="52.059610" lon="8.495683">
        <ele>97.058239</ele>
        <time>2026-04-21T12:49:18.227Z</time>
      </trkpt>
      <trkpt lat="52.059646" lon="8.495625">
        <ele>97.084291</ele>
        <time>2026-04-21T12:49:19.642Z</time>
      </trkpt>
      <trkpt lat="52.059833" lon="8.495322">
        <ele>97.220002</ele>
        <time>2026-04-21T12:49:27.042Z</time>
      </trkpt>
      <trkpt lat="52.059918" lon="8.495181">
        <ele>97.282423</ele>
        <time>2026-04-21T12:49:30.437Z</time>
      </trkpt>
      <trkpt lat="52.060003" lon="8.495059">
        <ele>97.340708</ele>
        <time>2026-04-21T12:49:33.639Z</time>
      </trkpt>
      <trkpt lat="52.059967" lon="8.494927">
        <ele>97.386355</ele>
        <time>2026-04-21T12:49:36.117Z</time>
      </trkpt>
      <trkpt lat="52.059872" lon="8.494673">
        <ele>97.480335</ele>
        <time>2026-04-21T12:49:40.269Z</time>
      </trkpt>
      <trkpt lat="52.059606" lon="8.494062">
        <ele>97.624781</ele>
        <time>2026-04-21T12:49:50.452Z</time>
      </trkpt>
      <trkpt lat="52.059449" lon="8.493699">
        <ele>97.631578</ele>
        <time>2026-04-21T12:49:56.335Z</time>
      </trkpt>
      <trkpt lat="52.059270" lon="8.493290">
        <ele>97.639267</ele>
        <time>2026-04-21T12:50:02.759Z</time>
      </trkpt>
      <trkpt lat="52.059161" lon="8.493034">
        <ele>97.644036</ele>
        <time>2026-04-21T12:50:06.682Z</time>
      </trkpt>
      <trkpt lat="52.058961" lon="8.492556">
        <ele>97.652892</ele>
        <time>2026-04-21T12:50:13.833Z</time>
      </trkpt>
      <trkpt lat="52.058794" lon="8.492161">
        <ele>97.660234</ele>
        <time>2026-04-21T12:50:19.938Z</time>
      </trkpt>
      <trkpt lat="52.058775" lon="8.492116">
        <ele>97.661070</ele>
        <time>2026-04-21T12:50:20.632Z</time>
      </trkpt>
      <trkpt lat="52.058620" lon="8.491620">
        <ele>97.656878</ele>
        <time>2026-04-21T12:50:27.820Z</time>
      </trkpt>
      <trkpt lat="52.058594" lon="8.491252">
        <ele>97.647211</ele>
        <time>2026-04-21T12:50:32.667Z</time>
      </trkpt>
      <trkpt lat="52.058637" lon="8.490910">
        <ele>97.638100</ele>
        <time>2026-04-21T12:50:37.301Z</time>
      </trkpt>
      <trkpt lat="52.058698" lon="8.490726">
        <ele>97.632644</ele>
        <time>2026-04-21T12:50:40.033Z</time>
      </trkpt>
      <trkpt lat="52.059237" lon="8.489691">
        <ele>97.597245</ele>
        <time>2026-04-21T12:50:57.331Z</time>
      </trkpt>
      <trkpt lat="52.059415" lon="8.489357">
        <ele>97.636584</ele>
        <time>2026-04-21T12:51:03.107Z</time>
      </trkpt>
      <trkpt lat="52.059573" lon="8.489045">
        <ele>97.815459</ele>
        <time>2026-04-21T12:51:08.351Z</time>
      </trkpt>
      <trkpt lat="52.059683" lon="8.488763">
        <ele>97.963250</ele>
        <time>2026-04-21T12:51:12.757Z</time>
      </trkpt>
      <trkpt lat="52.059744" lon="8.488415">
        <ele>98.123388</ele>
        <time>2026-04-21T12:51:17.520Z</time>
      </trkpt>
      <trkpt lat="52.059773" lon="8.487987">
        <ele>98.313939</ele>
        <time>2026-04-21T12:51:23.252Z</time>
      </trkpt>
      <trkpt lat="52.059614" lon="8.485850">
        <ele>100.129454</ele>
        <time>2026-04-21T12:51:53.585Z</time>
      </trkpt>
      <trkpt lat="52.059495" lon="8.484500">
        <ele>102.091323</ele>
        <time>2026-04-21T12:52:13.624Z</time>
      </trkpt>
      <trkpt lat="52.059416" lon="8.484170">
        <ele>102.600752</ele>
        <time>2026-04-21T12:52:18.891Z</time>
      </trkpt>
      <trkpt lat="52.059345" lon="8.484004">
        <ele>102.891644</ele>
        <time>2026-04-21T12:52:21.876Z</time>
      </trkpt>
      <trkpt lat="52.059195" lon="8.483814">
        <ele>103.374851</ele>
        <time>2026-04-21T12:52:26.442Z</time>
      </trkpt>
      <trkpt lat="52.058703" lon="8.483462">
        <ele>104.829329</ele>
        <time>2026-04-21T12:52:39.527Z</time>
      </trkpt>
      <trkpt lat="52.058387" lon="8.483298">
        <ele>105.726909</ele>
        <time>2026-04-21T12:52:47.666Z</time>
      </trkpt>
      <trkpt lat="52.058279" lon="8.483210">
        <ele>106.053784</ele>
        <time>2026-04-21T12:52:50.618Z</time>
      </trkpt>
      <trkpt lat="52.058312" lon="8.483109">
        <ele>106.244082</ele>
        <time>2026-04-21T12:52:52.626Z</time>
      </trkpt>
      <trkpt lat="52.058355" lon="8.482983">
        <ele>106.483850</ele>
        <time>2026-04-21T12:52:55.174Z</time>
      </trkpt>
      <trkpt lat="52.058296" lon="8.482630">
        <ele>107.092489</ele>
        <time>2026-04-21T12:53:00.535Z</time>
      </trkpt>
      <trkpt lat="52.058279" lon="8.482532">
        <ele>107.261908</ele>
        <time>2026-04-21T12:53:02.025Z</time>
      </trkpt>
      <trkpt lat="52.058228" lon="8.482239">
        <ele>107.768565</ele>
        <time>2026-04-21T12:53:06.380Z</time>
      </trkpt>
      <trkpt lat="52.058163" lon="8.481862">
        <ele>108.108621</ele>
        <time>2026-04-21T12:53:11.897Z</time>
      </trkpt>
      <trkpt lat="52.058143" lon="8.481735">
        <ele>108.179570</ele>
        <time>2026-04-21T12:53:13.748Z</time>
      </trkpt>
      <trkpt lat="52.058134" lon="8.481665">
        <ele>108.218273</ele>
        <time>2026-04-21T12:53:14.748Z</time>
      </trkpt>
      <trkpt lat="52.058118" lon="8.481290">
        <ele>108.421707</ele>
        <time>2026-04-21T12:53:20.047Z</time>
      </trkpt>
      <trkpt lat="52.058128" lon="8.481060">
        <ele>108.546491</ele>
        <time>2026-04-21T12:53:23.277Z</time>
      </trkpt>
      <trkpt lat="52.058133" lon="8.480923">
        <ele>108.620764</ele>
        <time>2026-04-21T12:53:25.168Z</time>
      </trkpt>
      <trkpt lat="52.058151" lon="8.480670">
        <ele>108.758598</ele>
        <time>2026-04-21T12:53:28.672Z</time>
      </trkpt>
      <trkpt lat="52.058155" lon="8.480605">
        <ele>108.793951</ele>
        <time>2026-04-21T12:53:29.573Z</time>
      </trkpt>
      <trkpt lat="52.058170" lon="8.480343">
        <ele>108.936356</ele>
        <time>2026-04-21T12:53:33.161Z</time>
      </trkpt>
      <trkpt lat="52.058192" lon="8.479973">
        <ele>109.137529</ele>
        <time>2026-04-21T12:53:38.142Z</time>
      </trkpt>
      <trkpt lat="52.058240" lon="8.479476">
        <ele>109.409797</ele>
        <time>2026-04-21T12:53:44.839Z</time>
      </trkpt>
      <trkpt lat="52.058354" lon="8.478734">
        <ele>109.604901</ele>
        <time>2026-04-21T12:53:54.728Z</time>
      </trkpt>
      <trkpt lat="52.058368" lon="8.478651">
        <ele>109.615348</ele>
        <time>2026-04-21T12:53:55.825Z</time>
      </trkpt>
      <trkpt lat="52.058498" lon="8.477888">
        <ele>109.711456</ele>
        <time>2026-04-21T12:54:06.005Z</time>
      </trkpt>
      <trkpt lat="52.058590" lon="8.477304">
        <ele>109.784635</ele>
        <time>2026-04-21T12:54:14.013Z</time>
      </trkpt>
      <trkpt lat="52.058711" lon="8.476744">
        <ele>109.856686</ele>
        <time>2026-04-21T12:54:21.987Z</time>
      </trkpt>
      <trkpt lat="52.058760" lon="8.476613">
        <ele>109.875299</ele>
        <time>2026-04-21T12:54:24.033Z</time>
      </trkpt>
      <trkpt lat="52.058837" lon="8.476411">
        <ele>109.900425</ele>
        <time>2026-04-21T12:54:27.213Z</time>
      </trkpt>
      <trkpt lat="52.058945" lon="8.476120">
        <ele>109.920991</ele>
        <time>2026-04-21T12:54:31.720Z</time>
      </trkpt>
      <trkpt lat="52.059039" lon="8.475870">
        <ele>109.938722</ele>
        <time>2026-04-21T12:54:35.605Z</time>
      </trkpt>
      <trkpt lat="52.059223" lon="8.475387">
        <ele>109.973101</ele>
        <time>2026-04-21T12:54:43.223Z</time>
      </trkpt>
      <trkpt lat="52.060213" lon="8.474042">
        <ele>109.802278</ele>
        <time>2026-04-21T12:55:10.236Z</time>
      </trkpt>
      <trkpt lat="52.060515" lon="8.473198">
        <ele>109.192865</ele>
        <time>2026-04-21T12:55:22.282Z</time>
      </trkpt>
      <trkpt lat="52.060710" lon="8.472662">
        <ele>108.804198</ele>
        <time>2026-04-21T12:55:29.770Z</time>
      </trkpt>
      <trkpt lat="52.060901" lon="8.472124">
        <ele>108.416504</ele>
        <time>2026-04-21T12:55:36.695Z</time>
      </trkpt>
      <trkpt lat="52.060869" lon="8.472005">
        <ele>108.335449</ele>
        <time>2026-04-21T12:55:39.234Z</time>
      </trkpt>
      <trkpt lat="52.060659" lon="8.471824">
        <ele>107.891426</ele>
        <time>2026-04-21T12:55:46.625Z</time>
      </trkpt>
      <trkpt lat="52.060545" lon="8.471804">
        <ele>107.621649</ele>
        <time>2026-04-21T12:55:50.181Z</time>
      </trkpt>
      <trkpt lat="52.060417" lon="8.471728">
        <ele>107.301049</ele>
        <time>2026-04-21T12:55:54.299Z</time>
      </trkpt>
      <trkpt lat="52.060412" lon="8.471522">
        <ele>107.002821</ele>
        <time>2026-04-21T12:55:58.111Z</time>
      </trkpt>
      <trkpt lat="52.060546" lon="8.470048">
        <ele>104.847380</ele>
        <time>2026-04-21T12:56:25.501Z</time>
      </trkpt>
      <trkpt lat="52.060848" lon="8.470079">
        <ele>104.135416</ele>
        <time>2026-04-21T12:56:34.890Z</time>
      </trkpt>
      <trkpt lat="52.060948" lon="8.470064">
        <ele>103.987639</ele>
        <time>2026-04-21T12:56:38.093Z</time>
      </trkpt>
      <trkpt lat="52.061010" lon="8.469977">
        <ele>103.940629</ele>
        <time>2026-04-21T12:56:40.708Z</time>
      </trkpt>
      <trkpt lat="52.060903" lon="8.468916">
        <ele>103.561126</ele>
        <time>2026-04-21T12:56:53.697Z</time>
      </trkpt>
      <trkpt lat="52.060886" lon="8.467634">
        <ele>103.108516</ele>
        <time>2026-04-21T12:57:10.507Z</time>
      </trkpt>
      <trkpt lat="52.060741" lon="8.462319">
        <ele>103.352371</ele>
        <time>2026-04-21T12:58:19.488Z</time>
      </trkpt>
      <trkpt lat="52.059731" lon="8.462639">
        <ele>103.761285</ele>
        <time>2026-04-21T12:58:42.425Z</time>
      </trkpt>
      <trkpt lat="52.059353" lon="8.463376">
        <ele>104.072906</ele>
        <time>2026-04-21T12:58:58.942Z</time>
      </trkpt>
      <trkpt lat="52.059731" lon="8.462639">
        <ele>104.384526</ele>
        <time>2026-04-21T12:59:15.268Z</time>
      </trkpt>
      <trkpt lat="52.057223" lon="8.463430">
        <ele>104.857622</ele>
        <time>2026-04-21T13:00:08.850Z</time>
      </trkpt>
      <trkpt lat="52.056406" lon="8.463704">
        <ele>105.419762</ele>
        <time>2026-04-21T13:00:27.254Z</time>
      </trkpt>
      <trkpt lat="52.056069" lon="8.463805">
        <ele>105.652568</ele>
        <time>2026-04-21T13:00:35.059Z</time>
      </trkpt>
      <trkpt lat="52.055429" lon="8.463997">
        <ele>107.324747</ele>
        <time>2026-04-21T13:00:50.551Z</time>
      </trkpt>
      <trkpt lat="52.055273" lon="8.464043">
        <ele>107.732113</ele>
        <time>2026-04-21T13:00:54.405Z</time>
      </trkpt>
      <trkpt lat="52.055129" lon="8.464086">
        <ele>108.108297</ele>
        <time>2026-04-21T13:00:57.961Z</time>
      </trkpt>
      <trkpt lat="52.055041" lon="8.464111">
        <ele>108.337830</ele>
        <time>2026-04-21T13:01:00.119Z</time>
      </trkpt>
      <trkpt lat="52.054773" lon="8.464156">
        <ele>109.030098</ele>
        <time>2026-04-21T13:01:06.630Z</time>
      </trkpt>
      <trkpt lat="52.054396" lon="8.464140">
        <ele>109.999102</ele>
        <time>2026-04-21T13:01:15.786Z</time>
      </trkpt>
      <trkpt lat="52.054206" lon="8.464090">
        <ele>110.447525</ele>
        <time>2026-04-21T13:01:20.492Z</time>
      </trkpt>
      <trkpt lat="52.053719" lon="8.463810">
        <ele>111.499200</ele>
        <time>2026-04-21T13:01:32.765Z</time>
      </trkpt>
      <trkpt lat="52.053378" lon="8.463431">
        <ele>112.340134</ele>
        <time>2026-04-21T13:01:42.282Z</time>
      </trkpt>
      <trkpt lat="52.053108" lon="8.463050">
        <ele>113.067959</ele>
        <time>2026-04-21T13:01:50.460Z</time>
      </trkpt>
      <trkpt lat="52.052841" lon="8.462608">
        <ele>113.843682</ele>
        <time>2026-04-21T13:01:59.219Z</time>
      </trkpt>
      <trkpt lat="52.052778" lon="8.462690">
        <ele>114.015584</ele>
        <time>2026-04-21T13:02:01.073Z</time>
      </trkpt>
      <trkpt lat="52.052742" lon="8.462624">
        <ele>114.137326</ele>
        <time>2026-04-21T13:02:02.319Z</time>
      </trkpt>
      <trkpt lat="52.052118" lon="8.461405">
        <ele>116.326031</ele>
        <time>2026-04-21T13:02:25.475Z</time>
      </trkpt>
      <trkpt lat="52.051673" lon="8.460468">
        <ele>117.959772</ele>
        <time>2026-04-21T13:02:42.830Z</time>
      </trkpt>
      <trkpt lat="52.051635" lon="8.460346">
        <ele>118.126368</ele>
        <time>2026-04-21T13:02:44.767Z</time>
      </trkpt>
      <trkpt lat="52.051208" lon="8.459459">
        <ele>119.488436</ele>
        <time>2026-04-21T13:03:00.856Z</time>
      </trkpt>
      <trkpt lat="52.051244" lon="8.459412">
        <ele>119.579212</ele>
        <time>2026-04-21T13:03:01.936Z</time>
      </trkpt>
      <trkpt lat="52.051165" lon="8.459233">
        <ele>119.845624</ele>
        <time>2026-04-21T13:03:05.091Z</time>
      </trkpt>
      <trkpt lat="52.051350" lon="8.459060">
        <ele>120.265242</ele>
        <time>2026-04-21T13:03:19.906Z</time>
      </trkpt>
      <trkpt lat="52.051330" lon="8.459011">
        <ele>120.336354</ele>
        <time>2026-04-21T13:03:22.419Z</time>
      </trkpt>
      <trkpt lat="52.051350" lon="8.459060">
        <ele>120.407466</ele>
        <time>2026-04-21T13:03:24.932Z</time>
      </trkpt>
      <trkpt lat="52.051165" lon="8.459233">
        <ele>120.827083</ele>
        <time>2026-04-21T13:03:39.748Z</time>
      </trkpt>
      <trkpt lat="52.051244" lon="8.459412">
        <ele>121.093495</ele>
        <time>2026-04-21T13:03:42.915Z</time>
      </trkpt>
      <trkpt lat="52.051208" lon="8.459459">
        <ele>121.184272</ele>
        <time>2026-04-21T13:03:44.033Z</time>
      </trkpt>
      <trkpt lat="52.051122" lon="8.459273">
        <ele>121.465655</ele>
        <time>2026-04-21T13:03:47.344Z</time>
      </trkpt>
      <trkpt lat="52.051031" lon="8.459078">
        <ele>121.754501</ele>
        <time>2026-04-21T13:03:50.823Z</time>
      </trkpt>
      <trkpt lat="52.050902" lon="8.458923">
        <ele>122.061050</ele>
        <time>2026-04-21T13:03:54.489Z</time>
      </trkpt>
      <trkpt lat="52.050734" lon="8.458429">
        <ele>122.724528</ele>
        <time>2026-04-21T13:04:02.555Z</time>
      </trkpt>
      <trkpt lat="52.050726" lon="8.458400">
        <ele>122.761885</ele>
        <time>2026-04-21T13:04:03.017Z</time>
      </trkpt>
      <trkpt lat="52.050352" lon="8.457243">
        <ele>124.298161</ele>
        <time>2026-04-21T13:04:21.783Z</time>
      </trkpt>
      <trkpt lat="52.050059" lon="8.456443">
        <ele>125.285914</ele>
        <time>2026-04-21T13:04:35.051Z</time>
      </trkpt>
      <trkpt lat="52.049885" lon="8.456082">
        <ele>125.696859</ele>
        <time>2026-04-21T13:04:41.699Z</time>
      </trkpt>
      <trkpt lat="52.049791" lon="8.455916">
        <ele>125.899035</ele>
        <time>2026-04-21T13:04:45.009Z</time>
      </trkpt>
      <trkpt lat="52.049777" lon="8.455690">
        <ele>126.102546</ele>
        <time>2026-04-21T13:04:48.363Z</time>
      </trkpt>
      <trkpt lat="52.049673" lon="8.455551">
        <ele>126.298677</ele>
        <time>2026-04-21T13:04:51.643Z</time>
      </trkpt>
      <trkpt lat="52.049584" lon="8.455522">
        <ele>126.430919</ele>
        <time>2026-04-21T13:04:53.819Z</time>
      </trkpt>
      <trkpt lat="52.049271" lon="8.455286">
        <ele>126.933567</ele>
        <time>2026-04-21T13:05:01.697Z</time>
      </trkpt>
      <trkpt lat="52.049046" lon="8.455219">
        <ele>127.266820</ele>
        <time>2026-04-21T13:05:06.729Z</time>
      </trkpt>
      <trkpt lat="52.049075" lon="8.455073">
        <ele>127.404286</ele>
        <time>2026-04-21T13:05:08.705Z</time>
      </trkpt>
      <trkpt lat="52.048975" lon="8.455019">
        <ele>127.557800</ele>
        <time>2026-04-21T13:05:10.952Z</time>
      </trkpt>
      <trkpt lat="52.049066" lon="8.454583">
        <ele>127.519458</ele>
        <time>2026-04-21T13:05:16.680Z</time>
      </trkpt>
      <trkpt lat="52.049163" lon="8.454125">
        <ele>127.471425</ele>
        <time>2026-04-21T13:05:22.503Z</time>
      </trkpt>
      <trkpt lat="52.049237" lon="8.453780">
        <ele>127.435194</ele>
        <time>2026-04-21T13:05:26.916Z</time>
      </trkpt>
      <trkpt lat="52.049248" lon="8.453725">
        <ele>127.429459</ele>
        <time>2026-04-21T13:05:27.628Z</time>
      </trkpt>
      <trkpt lat="52.049359" lon="8.453274">
        <ele>127.381290</ele>
        <time>2026-04-21T13:05:33.435Z</time>
      </trkpt>
      <trkpt lat="52.049135" lon="8.453079">
        <ele>127.340322</ele>
        <time>2026-04-21T13:05:38.392Z</time>
      </trkpt>
      <trkpt lat="52.048769" lon="8.452575">
        <ele>127.437405</ele>
        <time>2026-04-21T13:05:48.786Z</time>
      </trkpt>
      <trkpt lat="52.048630" lon="8.452337">
        <ele>127.903526</ele>
        <time>2026-04-21T13:05:53.416Z</time>
      </trkpt>
      <trkpt lat="52.048476" lon="8.452060">
        <ele>128.433822</ele>
        <time>2026-04-21T13:05:58.809Z</time>
      </trkpt>
      <trkpt lat="52.048139" lon="8.451291">
        <ele>129.774826</ele>
        <time>2026-04-21T13:06:12.790Z</time>
      </trkpt>
      <trkpt lat="52.047809" lon="8.450328">
        <ele>131.340425</ele>
        <time>2026-04-21T13:06:29.186Z</time>
      </trkpt>
      <trkpt lat="52.047655" lon="8.449851">
        <ele>132.341375</ele>
        <time>2026-04-21T13:06:37.229Z</time>
      </trkpt>
      <trkpt lat="52.047428" lon="8.449063">
        <ele>134.007251</ele>
        <time>2026-04-21T13:06:50.246Z</time>
      </trkpt>
      <trkpt lat="52.047370" lon="8.448793">
        <ele>134.554778</ele>
        <time>2026-04-21T13:06:54.536Z</time>
      </trkpt>
      <trkpt lat="52.047303" lon="8.448462">
        <ele>135.221902</ele>
        <time>2026-04-21T13:06:59.769Z</time>
      </trkpt>
      <trkpt lat="52.046702" lon="8.445206">
        <ele>141.279111</ele>
        <time>2026-04-21T13:07:50.854Z</time>
      </trkpt>
      <trkpt lat="52.046527" lon="8.444383">
        <ele>142.169335</ele>
        <time>2026-04-21T13:08:03.356Z</time>
      </trkpt>
      <trkpt lat="52.046472" lon="8.444089">
        <ele>142.230690</ele>
        <time>2026-04-21T13:08:07.636Z</time>
      </trkpt>
      <trkpt lat="52.046430" lon="8.443829">
        <ele>142.284361</ele>
        <time>2026-04-21T13:08:11.322Z</time>
      </trkpt>
      <trkpt lat="52.046244" lon="8.442359">
        <ele>142.584004</ele>
        <time>2026-04-21T13:08:30.158Z</time>
      </trkpt>
      <trkpt lat="52.046123" lon="8.441741">
        <ele>142.740754</ele>
        <time>2026-04-21T13:08:37.859Z</time>
      </trkpt>
      <trkpt lat="52.045929" lon="8.440978">
        <ele>143.015967</ele>
        <time>2026-04-21T13:08:48.434Z</time>
      </trkpt>
      <trkpt lat="52.045832" lon="8.440611">
        <ele>143.149120</ele>
        <time>2026-04-21T13:08:53.779Z</time>
      </trkpt>
      <trkpt lat="52.045793" lon="8.440456">
        <ele>143.204944</ele>
        <time>2026-04-21T13:08:56.062Z</time>
      </trkpt>
      <trkpt lat="52.045700" lon="8.440100">
        <ele>143.333874</ele>
        <time>2026-04-21T13:09:01.435Z</time>
      </trkpt>
      <trkpt lat="52.045600" lon="8.439899">
        <ele>143.420052</ele>
        <time>2026-04-21T13:09:05.037Z</time>
      </trkpt>
      <trkpt lat="52.045548" lon="8.439855">
        <ele>143.451823</ele>
        <time>2026-04-21T13:09:06.359Z</time>
      </trkpt>
      <trkpt lat="52.045148" lon="8.439542">
        <ele>143.806519</ele>
        <time>2026-04-21T13:09:16.448Z</time>
      </trkpt>
      <trkpt lat="52.044972" lon="8.439528">
        <ele>144.145260</ele>
        <time>2026-04-21T13:09:20.542Z</time>
      </trkpt>
      <trkpt lat="52.044847" lon="8.439604">
        <ele>144.401806</ele>
        <time>2026-04-21T13:09:23.721Z</time>
      </trkpt>
      <trkpt lat="52.044865" lon="8.439948">
        <ele>144.810000</ele>
        <time>2026-04-21T13:09:28.868Z</time>
      </trkpt>
      <trkpt lat="52.044882" lon="8.440257">
        <ele>145.176801</ele>
        <time>2026-04-21T13:09:42.125Z</time>
      </trkpt>
      <trkpt lat="52.044865" lon="8.439948">
        <ele>145.543601</ele>
        <time>2026-04-21T13:09:55.381Z</time>
      </trkpt>
      <trkpt lat="52.044847" lon="8.439604">
        <ele>145.951795</ele>
        <time>2026-04-21T13:10:00.485Z</time>
      </trkpt>
      <trkpt lat="52.044773" lon="8.439658">
        <ele>146.107720</ele>
        <time>2026-04-21T13:10:02.383Z</time>
      </trkpt>
      <trkpt lat="52.044648" lon="8.439752">
        <ele>146.372473</ele>
        <time>2026-04-21T13:10:05.576Z</time>
      </trkpt>
      <trkpt lat="52.044549" lon="8.439830">
        <ele>146.583954</ele>
        <time>2026-04-21T13:10:08.115Z</time>
      </trkpt>
      <trkpt lat="52.044448" lon="8.439963">
        <ele>146.833806</ele>
        <time>2026-04-21T13:10:11.110Z</time>
      </trkpt>
      <trkpt lat="52.044327" lon="8.440206">
        <ele>147.264804</ele>
        <time>2026-04-21T13:10:15.564Z</time>
      </trkpt>
      <trkpt lat="52.044300" lon="8.440266">
        <ele>147.407599</ele>
        <time>2026-04-21T13:10:16.638Z</time>
      </trkpt>
      <trkpt lat="52.044153" lon="8.440613">
        <ele>148.216886</ele>
        <time>2026-04-21T13:10:22.714Z</time>
      </trkpt>
      <trkpt lat="52.044104" lon="8.441020">
        <ele>149.013457</ele>
        <time>2026-04-21T13:10:28.782Z</time>
      </trkpt>
      <trkpt lat="52.044059" lon="8.441432">
        <ele>149.817177</ele>
        <time>2026-04-21T13:10:34.872Z</time>
      </trkpt>
      <trkpt lat="52.043965" lon="8.441754">
        <ele>150.501781</ele>
        <time>2026-04-21T13:10:40.058Z</time>
      </trkpt>
      <trkpt lat="52.043953" lon="8.441790">
        <ele>150.580429</ele>
        <time>2026-04-21T13:10:40.669Z</time>
      </trkpt>
      <trkpt lat="52.043852" lon="8.442073">
        <ele>151.208879</ele>
        <time>2026-04-21T13:10:45.603Z</time>
      </trkpt>
      <trkpt lat="52.043459" lon="8.443187">
        <ele>154.289337</ele>
        <time>2026-04-21T13:11:06.397Z</time>
      </trkpt>
      <trkpt lat="52.043410" lon="8.443317">
        <ele>154.770719</ele>
        <time>2026-04-21T13:11:09.071Z</time>
      </trkpt>
      <trkpt lat="52.043160" lon="8.443803">
        <ele>156.771053</ele>
        <time>2026-04-21T13:11:20.471Z</time>
      </trkpt>
      <trkpt lat="52.042459" lon="8.445022">
        <ele>161.975584</ele>
        <time>2026-04-21T13:11:48.936Z</time>
      </trkpt>
      <trkpt lat="52.042265" lon="8.445329">
        <ele>162.312760</ele>
        <time>2026-04-21T13:11:55.613Z</time>
      </trkpt>
      <trkpt lat="52.041413" lon="8.446447">
        <ele>163.676396</ele>
        <time>2026-04-21T13:12:19.791Z</time>
      </trkpt>
      <trkpt lat="52.041033" lon="8.446901">
        <ele>164.162326</ele>
        <time>2026-04-21T13:12:29.391Z</time>
      </trkpt>
      <trkpt lat="52.040629" lon="8.447336">
        <ele>163.874165</ele>
        <time>2026-04-21T13:12:39.281Z</time>
      </trkpt>
      <trkpt lat="52.040593" lon="8.447374">
        <ele>163.848640</ele>
        <time>2026-04-21T13:12:40.148Z</time>
      </trkpt>
      <trkpt lat="52.040320" lon="8.447736">
        <ele>163.639141</ele>
        <time>2026-04-21T13:12:47.374Z</time>
      </trkpt>
      <trkpt lat="52.039754" lon="8.448989">
        <ele>162.864925</ele>
        <time>2026-04-21T13:13:06.531Z</time>
      </trkpt>
      <trkpt lat="52.039639" lon="8.449210">
        <ele>162.363239</ele>
        <time>2026-04-21T13:13:09.708Z</time>
      </trkpt>
      <trkpt lat="52.039376" lon="8.449603">
        <ele>161.356750</ele>
        <time>2026-04-21T13:13:15.835Z</time>
      </trkpt>
      <trkpt lat="52.037722" lon="8.452042">
        <ele>153.905769</ele>
        <time>2026-04-21T13:13:51.560Z</time>
      </trkpt>
      <trkpt lat="52.037164" lon="8.452877">
        <ele>150.930598</ele>
        <time>2026-04-21T13:14:03.355Z</time>
      </trkpt>
      <trkpt lat="52.036997" lon="8.453120">
        <ele>149.946197</ele>
        <time>2026-04-21T13:14:06.818Z</time>
      </trkpt>
      <trkpt lat="52.036654" lon="8.453622">
        <ele>147.919095</ele>
        <time>2026-04-21T13:14:13.735Z</time>
      </trkpt>
      <trkpt lat="52.036190" lon="8.454300">
        <ele>145.178853</ele>
        <time>2026-04-21T13:14:23.159Z</time>
      </trkpt>
      <trkpt lat="52.036065" lon="8.454469">
        <ele>144.464769</ele>
        <time>2026-04-21T13:14:25.688Z</time>
      </trkpt>
      <trkpt lat="52.035899" lon="8.454567">
        <ele>143.689085</ele>
        <time>2026-04-21T13:14:28.484Z</time>
      </trkpt>
      <trkpt lat="52.035733" lon="8.454538">
        <ele>143.129995</ele>
        <time>2026-04-21T13:14:31.181Z</time>
      </trkpt>
      <trkpt lat="52.035322" lon="8.454165">
        <ele>143.163370</ele>
        <time>2026-04-21T13:14:39.176Z</time>
      </trkpt>
      <trkpt lat="52.035219" lon="8.454133">
        <ele>143.170805</ele>
        <time>2026-04-21T13:14:41.070Z</time>
      </trkpt>
      <trkpt lat="52.035139" lon="8.454153">
        <ele>143.176544</ele>
        <time>2026-04-21T13:14:42.583Z</time>
      </trkpt>
      <trkpt lat="52.034824" lon="8.454589">
        <ele>143.205879</ele>
        <time>2026-04-21T13:14:51.663Z</time>
      </trkpt>
      <trkpt lat="52.034371" lon="8.455270">
        <ele>143.249628</ele>
        <time>2026-04-21T13:15:06.256Z</time>
      </trkpt>
      <trkpt lat="52.034273" lon="8.455535">
        <ele>143.623909</ele>
        <time>2026-04-21T13:15:10.837Z</time>
      </trkpt>
      <trkpt lat="52.034249" lon="8.456023">
        <ele>144.567129</ele>
        <time>2026-04-21T13:15:18.235Z</time>
      </trkpt>
      <trkpt lat="52.034242" lon="8.456301">
        <ele>145.103195</ele>
        <time>2026-04-21T13:15:22.522Z</time>
      </trkpt>
      <trkpt lat="52.034240" lon="8.456485">
        <ele>145.457759</ele>
        <time>2026-04-21T13:15:25.363Z</time>
      </trkpt>
      <trkpt lat="52.034233" lon="8.456896">
        <ele>146.249929</ele>
        <time>2026-04-21T13:15:31.835Z</time>
      </trkpt>
      <trkpt lat="52.034202" lon="8.457251">
        <ele>146.940757</ele>
        <time>2026-04-21T13:15:37.507Z</time>
      </trkpt>
      <trkpt lat="52.033898" lon="8.458309">
        <ele>148.870210</ele>
        <time>2026-04-21T13:15:54.868Z</time>
      </trkpt>
      <trkpt lat="52.033775" lon="8.458693">
        <ele>148.821665</ele>
        <time>2026-04-21T13:16:01.027Z</time>
      </trkpt>
      <trkpt lat="52.033672" lon="8.458927">
        <ele>148.789401</ele>
        <time>2026-04-21T13:16:05.040Z</time>
      </trkpt>
      <trkpt lat="52.033099" lon="8.459945">
        <ele>148.634681</ele>
        <time>2026-04-21T13:16:22.218Z</time>
      </trkpt>
      <trkpt lat="52.032075" lon="8.461724">
        <ele>146.913142</ele>
        <time>2026-04-21T13:16:47.395Z</time>
      </trkpt>
      <trkpt lat="52.031965" lon="8.461892">
        <ele>146.684890</ele>
        <time>2026-04-21T13:16:50.063Z</time>
      </trkpt>
      <trkpt lat="52.031929" lon="8.461953">
        <ele>146.606249</ele>
        <time>2026-04-21T13:16:51.059Z</time>
      </trkpt>
      <trkpt lat="52.031784" lon="8.462196">
        <ele>146.291306</ele>
        <time>2026-04-21T13:16:54.909Z</time>
      </trkpt>
      <trkpt lat="52.031819" lon="8.462264">
        <ele>146.208821</ele>
        <time>2026-04-21T13:16:55.938Z</time>
      </trkpt>
      <trkpt lat="52.030963" lon="8.463516">
        <ele>149.402434</ele>
        <time>2026-04-21T13:17:22.584Z</time>
      </trkpt>
      <trkpt lat="52.029728" lon="8.464869">
        <ele>156.793478</ele>
        <time>2026-04-21T13:18:06.187Z</time>
      </trkpt>
      <trkpt lat="52.029408" lon="8.465255">
        <ele>159.386905</ele>
        <time>2026-04-21T13:18:19.039Z</time>
      </trkpt>
      <trkpt lat="52.028634" lon="8.466162">
        <ele>164.909424</ele>
        <time>2026-04-21T13:18:46.884Z</time>
      </trkpt>
      <trkpt lat="52.028511" lon="8.466287">
        <ele>165.199383</ele>
        <time>2026-04-21T13:18:50.650Z</time>
      </trkpt>
      <trkpt lat="52.028447" lon="8.466292">
        <ele>165.327455</ele>
        <time>2026-04-21T13:18:52.300Z</time>
      </trkpt>
      <trkpt lat="52.027166" lon="8.466604">
        <ele>167.916532</ele>
        <time>2026-04-21T13:19:21.518Z</time>
      </trkpt>
      <trkpt lat="52.026878" lon="8.466676">
        <ele>168.337619</ele>
        <time>2026-04-21T13:19:27.312Z</time>
      </trkpt>
      <trkpt lat="52.026690" lon="8.466733">
        <ele>168.513663</ele>
        <time>2026-04-21T13:19:31.220Z</time>
      </trkpt>
      <trkpt lat="52.026581" lon="8.466805">
        <ele>168.621970</ele>
        <time>2026-04-21T13:19:33.623Z</time>
      </trkpt>
      <trkpt lat="52.026343" lon="8.467045">
        <ele>168.879800</ele>
        <time>2026-04-21T13:19:39.540Z</time>
      </trkpt>
      <trkpt lat="52.025547" lon="8.467619">
        <ele>169.681424</ele>
        <time>2026-04-21T13:19:59.257Z</time>
      </trkpt>
      <trkpt lat="52.025356" lon="8.467760">
        <ele>169.917874</ele>
        <time>2026-04-21T13:20:04.189Z</time>
      </trkpt>
      <trkpt lat="52.024953" lon="8.468126">
        <ele>171.314395</ele>
        <time>2026-04-21T13:20:15.196Z</time>
      </trkpt>
      <trkpt lat="52.023015" lon="8.469025">
        <ele>177.102634</ele>
        <time>2026-04-21T13:21:05.013Z</time>
      </trkpt>
      <trkpt lat="52.022873" lon="8.469144">
        <ele>177.515448</ele>
        <time>2026-04-21T13:21:08.824Z</time>
      </trkpt>
      <trkpt lat="52.022661" lon="8.469659">
        <ele>178.500600</ele>
        <time>2026-04-21T13:21:17.781Z</time>
      </trkpt>
      <trkpt lat="52.022233" lon="8.470772">
        <ele>180.496814</ele>
        <time>2026-04-21T13:21:36.468Z</time>
      </trkpt>
      <trkpt lat="52.021870" lon="8.471712">
        <ele>182.013044</ele>
        <time>2026-04-21T13:21:52.523Z</time>
      </trkpt>
      <trkpt lat="52.021801" lon="8.472046">
        <ele>182.494406</ele>
        <time>2026-04-21T13:21:57.742Z</time>
      </trkpt>
      <trkpt lat="52.021732" lon="8.472590">
        <ele>183.253281</ele>
        <time>2026-04-21T13:22:05.934Z</time>
      </trkpt>
      <trkpt lat="52.021621" lon="8.473549">
        <ele>184.517944</ele>
        <time>2026-04-21T13:22:20.105Z</time>
      </trkpt>
      <trkpt lat="52.021589" lon="8.474955">
        <ele>186.237195</ele>
        <time>2026-04-21T13:22:49.185Z</time>
      </trkpt>
      <trkpt lat="52.021523" lon="8.476822">
        <ele>188.469680</ele>
        <time>2026-04-21T13:23:15.901Z</time>
      </trkpt>
      <trkpt lat="52.021565" lon="8.477276">
        <ele>189.001520</ele>
        <time>2026-04-21T13:23:22.670Z</time>
      </trkpt>
      <trkpt lat="52.021678" lon="8.477958">
        <ele>189.819710</ele>
        <time>2026-04-21T13:23:32.987Z</time>
      </trkpt>
      <trkpt lat="52.021840" lon="8.478644">
        <ele>190.670902</ele>
        <time>2026-04-21T13:23:43.462Z</time>
      </trkpt>
      <trkpt lat="52.021870" lon="8.478789">
        <ele>190.848114</ele>
        <time>2026-04-21T13:23:45.614Z</time>
      </trkpt>
      <trkpt lat="52.021898" lon="8.478925">
        <ele>190.857944</ele>
        <time>2026-04-21T13:23:47.615Z</time>
      </trkpt>
      <trkpt lat="52.021932" lon="8.479173">
        <ele>190.766506</ele>
        <time>2026-04-21T13:23:51.151Z</time>
      </trkpt>
      <trkpt lat="52.022002" lon="8.479880">
        <ele>190.508801</ele>
        <time>2026-04-21T13:24:00.527Z</time>
      </trkpt>
      <trkpt lat="52.022017" lon="8.480095">
        <ele>190.430932</ele>
        <time>2026-04-21T13:24:03.151Z</time>
      </trkpt>
      <trkpt lat="52.022045" lon="8.480636">
        <ele>190.235551</ele>
        <time>2026-04-21T13:24:09.441Z</time>
      </trkpt>
      <trkpt lat="52.022113" lon="8.481059">
        <ele>190.078214</ele>
        <time>2026-04-21T13:24:14.324Z</time>
      </trkpt>
      <trkpt lat="52.022245" lon="8.481646">
        <ele>189.853304</ele>
        <time>2026-04-21T13:24:21.136Z</time>
      </trkpt>
      <trkpt lat="52.022262" lon="8.481711">
        <ele>189.830152</ele>
        <time>2026-04-21T13:24:21.910Z</time>
      </trkpt>
      <trkpt lat="52.022685" lon="8.483305">
        <ele>189.298449</ele>
        <time>2026-04-21T13:24:42.028Z</time>
      </trkpt>
      <trkpt lat="52.022902" lon="8.484494">
        <ele>189.055237</ele>
        <time>2026-04-21T13:24:58.836Z</time>
      </trkpt>
      <trkpt lat="52.023030" lon="8.485494">
        <ele>190.205194</ele>
        <time>2026-04-21T13:25:13.312Z</time>
      </trkpt>
      <trkpt lat="52.023051" lon="8.485600">
        <ele>190.330568</ele>
        <time>2026-04-21T13:25:15.249Z</time>
      </trkpt>
      <trkpt lat="52.023000" lon="8.485613">
        <ele>190.425020</ele>
        <time>2026-04-21T13:25:16.711Z</time>
      </trkpt>
      <trkpt lat="52.022946" lon="8.485626">
        <ele>190.524898</ele>
        <time>2026-04-21T13:25:18.256Z</time>
      </trkpt>
      <trkpt lat="52.022988" lon="8.486228">
        <ele>191.207007</ele>
        <time>2026-04-21T13:25:28.813Z</time>
      </trkpt>
      <trkpt lat="52.022988" lon="8.486528">
        <ele>191.544764</ele>
        <time>2026-04-21T13:25:34.051Z</time>
      </trkpt>
      <trkpt lat="52.022946" lon="8.487158">
        <ele>192.258538</ele>
        <time>2026-04-21T13:25:45.090Z</time>
      </trkpt>
      <trkpt lat="52.022828" lon="8.487946">
        <ele>193.187215</ele>
        <time>2026-04-21T13:25:59.198Z</time>
      </trkpt>
      <trkpt lat="52.022728" lon="8.488460">
        <ele>193.804518</ele>
        <time>2026-04-21T13:26:08.540Z</time>
      </trkpt>
      <trkpt lat="52.022655" lon="8.488718">
        <ele>194.129692</ele>
        <time>2026-04-21T13:26:13.457Z</time>
      </trkpt>
      <trkpt lat="52.022605" lon="8.488903">
        <ele>194.361071</ele>
        <time>2026-04-21T13:26:16.948Z</time>
      </trkpt>
      <trkpt lat="52.022465" lon="8.489412">
        <ele>194.999509</ele>
        <time>2026-04-21T13:26:26.575Z</time>
      </trkpt>
      <trkpt lat="52.022363" lon="8.489783">
        <ele>195.464823</ele>
        <time>2026-04-21T13:26:33.584Z</time>
      </trkpt>
      <trkpt lat="52.022128" lon="8.490669">
        <ele>196.640244</ele>
        <time>2026-04-21T13:26:50.367Z</time>
      </trkpt>
      <trkpt lat="52.022034" lon="8.491117">
        <ele>197.221162</ele>
        <time>2026-04-21T13:26:58.599Z</time>
      </trkpt>
      <trkpt lat="52.021944" lon="8.491974">
        <ele>198.288173</ele>
        <time>2026-04-21T13:27:13.754Z</time>
      </trkpt>
      <trkpt lat="52.021644" lon="8.494226">
        <ele>199.630345</ele>
        <time>2026-04-21T13:27:53.615Z</time>
      </trkpt>
      <trkpt lat="52.021642" lon="8.494591">
        <ele>199.735768</ele>
        <time>2026-04-21T13:27:59.787Z</time>
      </trkpt>
      <trkpt lat="52.021723" lon="8.495115">
        <ele>199.891811</ele>
        <time>2026-04-21T13:28:08.825Z</time>
      </trkpt>
      <trkpt lat="52.021733" lon="8.495278">
        <ele>199.939122</ele>
        <time>2026-04-21T13:28:10.817Z</time>
      </trkpt>
      <trkpt lat="52.021810" lon="8.495656">
        <ele>199.784655</ele>
        <time>2026-04-21T13:28:15.478Z</time>
      </trkpt>
      <trkpt lat="52.022096" lon="8.496717">
        <ele>197.671228</ele>
        <time>2026-04-21T13:28:27.640Z</time>
      </trkpt>
      <trkpt lat="52.022184" lon="8.497347">
        <ele>196.492529</ele>
        <time>2026-04-21T13:28:34.187Z</time>
      </trkpt>
      <trkpt lat="52.022179" lon="8.498101">
        <ele>195.116750</ele>
        <time>2026-04-21T13:28:41.602Z</time>
      </trkpt>
      <trkpt lat="52.021968" lon="8.499948">
        <ele>189.016981</ele>
        <time>2026-04-21T13:28:59.004Z</time>
      </trkpt>
      <trkpt lat="52.021978" lon="8.500172">
        <ele>188.241601</ele>
        <time>2026-04-21T13:29:01.022Z</time>
      </trkpt>
      <trkpt lat="52.021978" lon="8.500286">
        <ele>187.848022</ele>
        <time>2026-04-21T13:29:02.045Z</time>
      </trkpt>
      <trkpt lat="52.021977" lon="8.500368">
        <ele>187.564866</ele>
        <time>2026-04-21T13:29:02.778Z</time>
      </trkpt>
      <trkpt lat="52.021977" lon="8.500477">
        <ele>187.188550</ele>
        <time>2026-04-21T13:29:03.751Z</time>
      </trkpt>
      <trkpt lat="52.021978" lon="8.500551">
        <ele>186.933008</ele>
        <time>2026-04-21T13:29:04.408Z</time>
      </trkpt>
      <trkpt lat="52.022059" lon="8.501012">
        <ele>185.277824</ele>
        <time>2026-04-21T13:29:08.654Z</time>
      </trkpt>
      <trkpt lat="52.022517" lon="8.502745">
        <ele>178.918464</ele>
        <time>2026-04-21T13:29:25.396Z</time>
      </trkpt>
      <trkpt lat="52.022694" lon="8.503902">
        <ele>174.909922</ele>
        <time>2026-04-21T13:29:36.817Z</time>
      </trkpt>
      <trkpt lat="52.022679" lon="8.504197">
        <ele>174.371578</ele>
        <time>2026-04-21T13:29:39.703Z</time>
      </trkpt>
      <trkpt lat="52.022501" lon="8.505544">
        <ele>172.227247</ele>
        <time>2026-04-21T13:29:53.548Z</time>
      </trkpt>
      <trkpt lat="52.022387" lon="8.506211">
        <ele>171.149794</ele>
        <time>2026-04-21T13:30:01.165Z</time>
      </trkpt>
      <trkpt lat="52.022230" lon="8.507799">
        <ele>169.437550</ele>
        <time>2026-04-21T13:30:20.171Z</time>
      </trkpt>
      <trkpt lat="52.022181" lon="8.508565">
        <ele>168.843061</ele>
        <time>2026-04-21T13:30:30.125Z</time>
      </trkpt>
      <trkpt lat="52.022142" lon="8.509942">
        <ele>167.365960</ele>
        <time>2026-04-21T13:30:45.438Z</time>
      </trkpt>
      <trkpt lat="52.022069" lon="8.510354">
        <ele>166.278401</ele>
        <time>2026-04-21T13:30:49.757Z</time>
      </trkpt>
      <trkpt lat="52.021960" lon="8.510718">
        <ele>165.251537</ele>
        <time>2026-04-21T13:30:53.755Z</time>
      </trkpt>
      <trkpt lat="52.021698" lon="8.511284">
        <ele>163.454921</ele>
        <time>2026-04-21T13:31:00.596Z</time>
      </trkpt>
      <trkpt lat="52.021513" lon="8.511572">
        <ele>162.398844</ele>
        <time>2026-04-21T13:31:04.446Z</time>
      </trkpt>
      <trkpt lat="52.021220" lon="8.511850">
        <ele>161.000231</ele>
        <time>2026-04-21T13:31:09.426Z</time>
      </trkpt>
      <trkpt lat="52.020944" lon="8.512005">
        <ele>159.631166</ele>
        <time>2026-04-21T13:31:13.696Z</time>
      </trkpt>
      <trkpt lat="52.020228" lon="8.512441">
        <ele>155.783370</ele>
        <time>2026-04-21T13:31:25.056Z</time>
      </trkpt>
      <trkpt lat="52.019447" lon="8.513087">
        <ele>151.403003</ele>
        <time>2026-04-21T13:31:38.377Z</time>
      </trkpt>
      <trkpt lat="52.019211" lon="8.513259">
        <ele>150.422060</ele>
        <time>2026-04-21T13:31:42.605Z</time>
      </trkpt>
      <trkpt lat="52.019007" lon="8.513422">
        <ele>149.559906</ele>
        <time>2026-04-21T13:31:46.421Z</time>
      </trkpt>
      <trkpt lat="52.018694" lon="8.513784">
        <ele>148.102866</ele>
        <time>2026-04-21T13:31:52.681Z</time>
      </trkpt>
      <trkpt lat="52.018488" lon="8.514024">
        <ele>147.141542</ele>
        <time>2026-04-21T13:31:56.673Z</time>
      </trkpt>
      <trkpt lat="52.018383" lon="8.514155">
        <ele>146.639486</ele>
        <time>2026-04-21T13:31:58.751Z</time>
      </trkpt>
      <trkpt lat="52.018310" lon="8.514336">
        <ele>146.134400</ele>
        <time>2026-04-21T13:32:00.829Z</time>
      </trkpt>
      <trkpt lat="52.018099" lon="8.514482">
        <ele>145.264639</ele>
        <time>2026-04-21T13:32:04.407Z</time>
      </trkpt>
      <trkpt lat="52.017896" lon="8.514648">
        <ele>144.376054</ele>
        <time>2026-04-21T13:32:07.988Z</time>
      </trkpt>
      <trkpt lat="52.017731" lon="8.514860">
        <ele>143.499305</ele>
        <time>2026-04-21T13:32:11.297Z</time>
      </trkpt>
      <trkpt lat="52.017697" lon="8.514906">
        <ele>143.314899</ele>
        <time>2026-04-21T13:32:11.979Z</time>
      </trkpt>
      <trkpt lat="52.017222" lon="8.515573">
        <ele>140.698224</ele>
        <time>2026-04-21T13:32:21.614Z</time>
      </trkpt>
      <trkpt lat="52.017050" lon="8.515838">
        <ele>139.710283</ele>
        <time>2026-04-21T13:32:25.260Z</time>
      </trkpt>
      <trkpt lat="52.016866" lon="8.516159">
        <ele>138.585040</ele>
        <time>2026-04-21T13:32:29.483Z</time>
      </trkpt>
      <trkpt lat="52.016669" lon="8.516578">
        <ele>137.232484</ele>
        <time>2026-04-21T13:32:34.664Z</time>
      </trkpt>
      <trkpt lat="52.016430" lon="8.517195">
        <ele>135.559170</ele>
        <time>2026-04-21T13:32:41.770Z</time>
      </trkpt>
      <trkpt lat="52.016469" lon="8.517253">
        <ele>135.362724</ele>
        <time>2026-04-21T13:32:42.926Z</time>
      </trkpt>
      <trkpt lat="52.016464" lon="8.517310">
        <ele>135.231061</ele>
        <time>2026-04-21T13:32:43.693Z</time>
      </trkpt>
      <trkpt lat="52.016225" lon="8.518080">
        <ele>133.258979</ele>
        <time>2026-04-21T13:32:55.214Z</time>
      </trkpt>
      <trkpt lat="52.016192" lon="8.518275">
        <ele>132.796506</ele>
        <time>2026-04-21T13:32:57.935Z</time>
      </trkpt>
      <trkpt lat="52.016185" lon="8.518565">
        <ele>132.132829</ele>
        <time>2026-04-21T13:33:01.855Z</time>
      </trkpt>
      <trkpt lat="52.016209" lon="8.518848">
        <ele>131.479555</ele>
        <time>2026-04-21T13:33:05.740Z</time>
      </trkpt>
      <trkpt lat="52.016302" lon="8.519922">
        <ele>129.377802</ele>
        <time>2026-04-21T13:33:20.485Z</time>
      </trkpt>
      <trkpt lat="52.016325" lon="8.519970">
        <ele>129.273950</ele>
        <time>2026-04-21T13:33:21.313Z</time>
      </trkpt>
      <trkpt lat="52.016465" lon="8.521177">
        <ele>127.177140</ele>
        <time>2026-04-21T13:33:33.960Z</time>
      </trkpt>
      <trkpt lat="52.016563" lon="8.521612">
        <ele>126.386339</ele>
        <time>2026-04-21T13:33:38.955Z</time>
      </trkpt>
      <trkpt lat="52.016705" lon="8.522035">
        <ele>125.563775</ele>
        <time>2026-04-21T13:33:44.057Z</time>
      </trkpt>
      <trkpt lat="52.016807" lon="8.522306">
        <ele>125.205426</ele>
        <time>2026-04-21T13:33:48.692Z</time>
      </trkpt>
      <trkpt lat="52.016880" lon="8.522572">
        <ele>124.898093</ele>
        <time>2026-04-21T13:33:52.989Z</time>
      </trkpt>
      <trkpt lat="52.016976" lon="8.523130">
        <ele>124.286703</ele>
        <time>2026-04-21T13:34:01.473Z</time>
      </trkpt>
      <trkpt lat="52.016970" lon="8.523214">
        <ele>124.197469</ele>
        <time>2026-04-21T13:34:02.713Z</time>
      </trkpt>
      <trkpt lat="52.017021" lon="8.523282">
        <ele>124.084352</ele>
        <time>2026-04-21T13:34:04.349Z</time>
      </trkpt>
      <trkpt lat="52.017195" lon="8.523510">
        <ele>123.701086</ele>
        <time>2026-04-21T13:34:09.700Z</time>
      </trkpt>
      <trkpt lat="52.017431" lon="8.523777">
        <ele>123.208014</ele>
        <time>2026-04-21T13:34:16.962Z</time>
      </trkpt>
      <trkpt lat="52.017529" lon="8.523953">
        <ele>122.957563</ele>
        <time>2026-04-21T13:34:20.740Z</time>
      </trkpt>
      <trkpt lat="52.017750" lon="8.524249">
        <ele>122.466497</ele>
        <time>2026-04-21T13:34:28.117Z</time>
      </trkpt>
      <trkpt lat="52.017844" lon="8.524351">
        <ele>122.360690</ele>
        <time>2026-04-21T13:34:31.051Z</time>
      </trkpt>
      <trkpt lat="52.017794" lon="8.524462">
        <ele>122.302729</ele>
        <time>2026-04-21T13:34:33.142Z</time>
      </trkpt>
      <trkpt lat="52.017767" lon="8.524520">
        <ele>122.272086</ele>
        <time>2026-04-21T13:34:34.323Z</time>
      </trkpt>
      <trkpt lat="52.017721" lon="8.524625">
        <ele>122.217778</ele>
        <time>2026-04-21T13:34:36.360Z</time>
      </trkpt>
      <trkpt lat="52.017668" lon="8.524746">
        <ele>122.155198</ele>
        <time>2026-04-21T13:34:38.175Z</time>
      </trkpt>
      <trkpt lat="52.017611" lon="8.524875">
        <ele>122.088283</ele>
        <time>2026-04-21T13:34:40.770Z</time>
      </trkpt>
      <trkpt lat="52.017591" lon="8.524917">
        <ele>122.065907</ele>
        <time>2026-04-21T13:34:41.454Z</time>
      </trkpt>
      <trkpt lat="52.017566" lon="8.524971">
        <ele>122.037434</ele>
        <time>2026-04-21T13:34:42.299Z</time>
      </trkpt>
      <trkpt lat="52.017538" lon="8.525020">
        <ele>122.009259</ele>
        <time>2026-04-21T13:34:43.141Z</time>
      </trkpt>
      <trkpt lat="52.017548" lon="8.525079">
        <ele>121.983473</ele>
        <time>2026-04-21T13:34:44.158Z</time>
      </trkpt>
      <trkpt lat="52.017554" lon="8.525112">
        <ele>121.968974</ele>
        <time>2026-04-21T13:34:44.745Z</time>
      </trkpt>
      <trkpt lat="52.017569" lon="8.525196">
        <ele>121.932120</ele>
        <time>2026-04-21T13:34:46.222Z</time>
      </trkpt>
      <trkpt lat="52.017655" lon="8.525202">
        <ele>121.873184</ele>
        <time>2026-04-21T13:34:48.513Z</time>
      </trkpt>
      <trkpt lat="52.017825" lon="8.525389">
        <ele>121.732626</ele>
        <time>2026-04-21T13:34:54.070Z</time>
      </trkpt>
      <trkpt lat="52.017877" lon="8.525450">
        <ele>121.688715</ele>
        <time>2026-04-21T13:34:55.784Z</time>
      </trkpt>
      <trkpt lat="52.018080" lon="8.525669">
        <ele>121.521883</ele>
        <time>2026-04-21T13:35:02.424Z</time>
      </trkpt>
      <trkpt lat="52.018092" lon="8.525687">
        <ele>121.510701</ele>
        <time>2026-04-21T13:35:02.885Z</time>
      </trkpt>
      <trkpt lat="52.018107" lon="8.525721">
        <ele>121.493074</ele>
        <time>2026-04-21T13:35:03.574Z</time>
      </trkpt>
      <trkpt lat="52.018127" lon="8.525745">
        <ele>121.476051</ele>
        <time>2026-04-21T13:35:04.245Z</time>
      </trkpt>
      <trkpt lat="52.018231" lon="8.525842">
        <ele>121.393949</ele>
        <time>2026-04-21T13:35:07.505Z</time>
      </trkpt>
      <trkpt lat="52.018492" lon="8.526084">
        <ele>121.188203</ele>
        <time>2026-04-21T13:35:15.554Z</time>
      </trkpt>
      <trkpt lat="52.018562" lon="8.526096">
        <ele>121.187705</ele>
        <time>2026-04-21T13:35:17.366Z</time>
      </trkpt>
      <trkpt lat="52.019065" lon="8.526476">
        <ele>121.187705</ele>
        <time>2026-04-21T13:35:32.305Z</time>
      </trkpt>
      <trkpt lat="52.019421" lon="8.526587">
        <ele>121.187705</ele>
        <time>2026-04-21T13:35:42.330Z</time>
      </trkpt>
      <trkpt lat="52.019579" lon="8.526563">
        <ele>121.187705</ele>
        <time>2026-04-21T13:35:45.634Z</time>
      </trkpt>
      <trkpt lat="52.019570" lon="8.526716">
        <ele>121.187705</ele>
        <time>2026-04-21T13:35:47.689Z</time>
      </trkpt>
      <trkpt lat="52.019542" lon="8.526949">
        <ele>121.187705</ele>
        <time>2026-04-21T13:35:50.860Z</time>
      </trkpt>
      <trkpt lat="52.019471" lon="8.527171">
        <ele>121.187705</ele>
        <time>2026-04-21T13:35:54.213Z</time>
      </trkpt>
      <trkpt lat="52.019492" lon="8.527375">
        <ele>121.187705</ele>
        <time>2026-04-21T13:35:57.004Z</time>
      </trkpt>
      <trkpt lat="52.019546" lon="8.527874">
        <ele>121.187705</ele>
        <time>2026-04-21T13:36:03.856Z</time>
      </trkpt>
      <trkpt lat="52.019591" lon="8.527938">
        <ele>121.187705</ele>
        <time>2026-04-21T13:36:05.168Z</time>
      </trkpt>
      <trkpt lat="52.019604" lon="8.528015">
        <ele>121.187705</ele>
        <time>2026-04-21T13:36:06.522Z</time>
      </trkpt>
      <trkpt lat="52.019495" lon="8.527946">
        <ele>121.187705</ele>
        <time>2026-04-21T13:36:09.741Z</time>
      </trkpt>
      <trkpt lat="52.019647" lon="8.528342">
        <ele>121.187705</ele>
        <time>2026-04-21T13:36:17.628Z</time>
      </trkpt>
    </trkseg>
  </trk>
</gpx>